Observation data for Tarzan on 07/20/2019      Previous  Date       Current Mesonet Observations  Soil Data  Daily Summary Page  Observations in Plain Language
KTA1 200500Z 16011KT 29/13 A2996 RMK A01 T02940134  RH  037%=      5-min Rain = 0
KTA1 200501Z 16011G17KT 29/13 A2996 RMK A01 T02940134  RH  038%=      5-min Rain = 0
KTA1 200502Z 15012KT 29/13 A2996 RMK A01 T02930134  RH  038%=      5-min Rain = 0
KTA1 200503Z 16013KT 29/13 A2996 RMK A01 T02930134  RH  038%=      5-min Rain = 0
KTA1 200504Z 16011KT 29/13 A2996 RMK A01 T02930134  RH  038%=      5-min Rain = 0
KTA1 200505Z 16011KT 29/13 A2996 RMK A01 T02930134  RH  038%=      5-min Rain = 0
KTA1 200506Z 16012KT 29/14 A2996 RMK A01 T02920135  RH  038%=      5-min Rain = 0
KTA1 200507Z 16013KT 29/14 A2996 RMK A01 T02920135  RH  038%=      5-min Rain = 0
KTA1 200508Z 16011KT 29/13 A2996 RMK A01 T02920134  RH  038%=      5-min Rain = 0
KTA1 200509Z 16011KT 29/13 A2996 RMK A01 T02920134  RH  038%=      5-min Rain = 0
KTA1 200510Z 16010KT 29/14 A2996 RMK A01 T02920135  RH  038%=      5-min Rain = 0
KTA1 200511Z 16013KT 29/14 A2996 RMK A01 T02920135  RH  038%=      5-min Rain = 0
KTA1 200512Z 16012KT 29/14 A2996 RMK A01 T02910135  RH  038%=      5-min Rain = 0
KTA1 200513Z 16010KT 29/13 A2996 RMK A01 T02910134  RH  038%=      5-min Rain = 0
KTA1 200514Z 16012KT 29/14 A2996 RMK A01 T02910135  RH  038%=      5-min Rain = 0
KTA1 200515Z 16011KT 29/14 A2996 RMK A01 T02910135  RH  038%=      5-min Rain = 0
KTA1 200516Z 16011KT 29/14 A2996 RMK A01 T02920135  RH  038%=      5-min Rain = 0
KTA1 200517Z 16009KT 29/14 A2996 RMK A01 T02910135  RH  038%=      5-min Rain = 0
KTA1 200518Z 16011KT 29/14 A2996 RMK A01 T02910135  RH  038%=      5-min Rain = 0
KTA1 200519Z 16010KT 29/14 A2996 RMK A01 T02900135  RH  038%=      5-min Rain = 0
KTA1 200520Z 16010KT 29/14 A2996 RMK A01 T02900135  RH  039%=      5-min Rain = 0
KTA1 200521Z 16010KT 29/14 A2996 RMK A01 T02910136  RH  039%=      5-min Rain = 0
KTA1 200522Z 16010KT 29/14 A2996 RMK A01 T02900136  RH  039%=      5-min Rain = 0
KTA1 200523Z 16010KT 29/14 A2996 RMK A01 T02900136  RH  039%=      5-min Rain = 0
KTA1 200524Z 16009KT 29/14 A2997 RMK A01 T02900136  RH  039%=      5-min Rain = 0
KTA1 200525Z 17010KT 29/14 A2997 RMK A01 T02890135  RH  039%=      5-min Rain = 0
KTA1 200526Z 16010KT 29/14 A2997 RMK A01 T02880135  RH  039%=      5-min Rain = 0
KTA1 200527Z 16012KT 29/14 A2997 RMK A01 T02890136  RH  039%=      5-min Rain = 0
KTA1 200528Z 16010KT 29/14 A2997 RMK A01 T02880135  RH  039%=      5-min Rain = 0
KTA1 200529Z 16010KT 29/14 A2997 RMK A01 T02890136  RH  039%=      5-min Rain = 0
KTA1 200530Z 16010KT 29/14 A2997 RMK A01 T02880136  RH  039%=      5-min Rain = 0
KTA1 200531Z 16009KT 29/14 A2997 RMK A01 T02880136  RH  039%=      5-min Rain = 0
KTA1 200532Z 16009KT 29/14 A2996 RMK A01 T02870136  RH  039%=      5-min Rain = 0
KTA1 200533Z 16009KT 29/14 A2996 RMK A01 T02870136  RH  039%=      5-min Rain = 0
KTA1 200534Z 16010KT 29/14 A2996 RMK A01 T02870136  RH  040%=      5-min Rain = 0
KTA1 200535Z 16010KT 29/14 A2996 RMK A01 T02860136  RH  040%=      5-min Rain = 0
KTA1 200536Z 16011KT 29/14 A2996 RMK A01 T02860136  RH  040%=      5-min Rain = 0
KTA1 200537Z 16009KT 29/14 A2996 RMK A01 T02860136  RH  040%=      5-min Rain = 0
KTA1 200538Z 16008KT 29/14 A2996 RMK A01 T02860136  RH  040%=      5-min Rain = 0
KTA1 200539Z 16009KT 29/14 A2996 RMK A01 T02850136  RH  040%=      5-min Rain = 0
KTA1 200540Z 16009KT 29/14 A2996 RMK A01 T02850136  RH  040%=      5-min Rain = 0
KTA1 200541Z 16009KT 28/14 A2997 RMK A01 T02840136  RH  040%=      5-min Rain = 0
KTA1 200542Z 16009KT 28/14 A2996 RMK A01 T02840136  RH  040%=      5-min Rain = 0
KTA1 200543Z 16009KT 28/14 A2996 RMK A01 T02840136  RH  040%=      5-min Rain = 0
KTA1 200544Z 16009KT 28/14 A2997 RMK A01 T02840136  RH  040%=      5-min Rain = 0
KTA1 200545Z 16008KT 28/14 A2996 RMK A01 T02830136  RH  040%=      5-min Rain = 0
KTA1 200546Z 17009KT 28/14 A2996 RMK A01 T02830136  RH  041%=      5-min Rain = 0
KTA1 200547Z 16009KT 28/14 A2997 RMK A01 T02820136  RH  041%=      5-min Rain = 0
KTA1 200548Z 16009KT 28/14 A2996 RMK A01 T02810136  RH  041%=      5-min Rain = 0
KTA1 200549Z 16009KT 28/14 A2996 RMK A01 T02810136  RH  041%=      5-min Rain = 0
KTA1 200550Z 17008KT 28/14 A2996 RMK A01 T02810136  RH  041%=      5-min Rain = 0
KTA1 200551Z 16010KT 28/14 A2996 RMK A01 T02810136  RH  041%=      5-min Rain = 0
KTA1 200552Z 16009KT 28/14 A2996 RMK A01 T02810136  RH  041%=      5-min Rain = 0
KTA1 200553Z 16009KT 28/14 A2996 RMK A01 T02810136  RH  041%=      5-min Rain = 0
KTA1 200554Z 16008KT 28/14 A2996 RMK A01 T02800136  RH  041%=      5-min Rain = 0
KTA1 200555Z 16010KT 28/14 A2996 RMK A01 T02800137  RH  041%=      5-min Rain = 0
KTA1 200556Z 16009KT 28/14 A2996 RMK A01 T02790136  RH  041%=      5-min Rain = 0
KTA1 200557Z 16009KT 28/14 A2996 RMK A01 T02790136  RH  041%=      5-min Rain = 0
KTA1 200558Z 16009KT 28/14 A2996 RMK A01 T02790137  RH  041%=      5-min Rain = 0
KTA1 200559Z 16010KT 28/14 A2996 RMK A01 T02790137  RH  042%=      5-min Rain = 0
KTA1 200600Z 16009KT 28/14 A2996 RMK A01 T02790137  RH  042%=      5-min Rain = 0
KTA1 200601Z 16010KT 28/14 A2996 RMK A01 T02790137  RH  042%=      5-min Rain = 0
KTA1 200602Z 16010KT 28/14 A2996 RMK A01 T02790137  RH  042%=      5-min Rain = 0
KTA1 200603Z 16008KT 28/14 A2996 RMK A01 T02790136  RH  042%=      5-min Rain = 0
KTA1 200604Z 16008KT 28/14 A2996 RMK A01 T02790136  RH  042%=      5-min Rain = 0
KTA1 200605Z 16010KT 28/14 A2996 RMK A01 T02780136  RH  042%=      5-min Rain = 0
KTA1 200606Z 16008KT 28/14 A2996 RMK A01 T02780136  RH  042%=      5-min Rain = 0
KTA1 200607Z 16009KT 28/14 A2996 RMK A01 T02780136  RH  042%=      5-min Rain = 0
KTA1 200608Z 16008KT 28/14 A2996 RMK A01 T02770136  RH  042%=      5-min Rain = 0
KTA1 200609Z 16008KT 28/14 A2996 RMK A01 T02770136  RH  042%=      5-min Rain = 0
KTA1 200610Z 16009KT 28/14 A2996 RMK A01 T02770137  RH  042%=      5-min Rain = 0
KTA1 200611Z 16008KT 28/14 A2996 RMK A01 T02760137  RH  042%=      5-min Rain = 0
KTA1 200612Z 16009KT 28/14 A2996 RMK A01 T02750137  RH  042%=      5-min Rain = 0
KTA1 200613Z 16009KT 28/14 A2996 RMK A01 T02750137  RH  043%=      5-min Rain = 0
KTA1 200614Z 16010KT 28/14 A2996 RMK A01 T02750137  RH  043%=      5-min Rain = 0
KTA1 200615Z 16009KT 28/14 A2996 RMK A01 T02750137  RH  043%=      5-min Rain = 0
KTA1 200616Z 16009KT 28/14 A2996 RMK A01 T02750137  RH  043%=      5-min Rain = 0
KTA1 200617Z 16008KT 28/14 A2996 RMK A01 T02750137  RH  043%=      5-min Rain = 0
KTA1 200618Z 16008KT 28/14 A2996 RMK A01 T02750137  RH  043%=      5-min Rain = 0
KTA1 200619Z 17009KT 27/14 A2996 RMK A01 T02740136  RH  043%=      5-min Rain = 0
KTA1 200620Z 16008KT 27/14 A2996 RMK A01 T02740137  RH  043%=      5-min Rain = 0
KTA1 200621Z 17008KT 27/14 A2996 RMK A01 T02730136  RH  043%=      5-min Rain = 0
KTA1 200622Z 16009KT 27/14 A2995 RMK A01 T02730137  RH  043%=      5-min Rain = 0
KTA1 200623Z 16008KT 27/14 A2995 RMK A01 T02730137  RH  043%=      5-min Rain = 0
KTA1 200624Z 16009KT 27/14 A2995 RMK A01 T02730137  RH  043%=      5-min Rain = 0
KTA1 200625Z 16009KT 27/14 A2995 RMK A01 T02730136  RH  043%=      5-min Rain = 0
KTA1 200626Z 16007KT 27/14 A2995 RMK A01 T02730136  RH  043%=      5-min Rain = 0
KTA1 200627Z 16009KT 27/14 A2995 RMK A01 T02730136  RH  043%=      5-min Rain = 0
KTA1 200628Z 16008KT 27/14 A2996 RMK A01 T02730136  RH  043%=      5-min Rain = 0
KTA1 200629Z 16008KT 27/14 A2996 RMK A01 T02730136  RH  043%=      5-min Rain = 0
KTA1 200630Z 16009KT 27/14 A2996 RMK A01 T02730137  RH  043%=      5-min Rain = 0
KTA1 200631Z 16008KT 27/14 A2996 RMK A01 T02730137  RH  043%=      5-min Rain = 0
KTA1 200632Z 16008KT 27/14 A2996 RMK A01 T02730137  RH  043%=      5-min Rain = 0
KTA1 200633Z 16008KT 27/14 A2996 RMK A01 T02730137  RH  043%=      5-min Rain = 0
KTA1 200634Z 16008KT 27/14 A2996 RMK A01 T02720137  RH  043%=      5-min Rain = 0
KTA1 200635Z 16007KT 27/14 A2996 RMK A01 T02710137  RH  043%=      5-min Rain = 0
KTA1 200636Z 16007KT 27/14 A2996 RMK A01 T02710137  RH  044%=      5-min Rain = 0
KTA1 200637Z 16007KT 27/14 A2996 RMK A01 T02700137  RH  044%=      5-min Rain = 0
KTA1 200638Z 16007KT 27/14 A2996 RMK A01 T02700137  RH  044%=      5-min Rain = 0
KTA1 200639Z 16008KT 27/14 A2996 RMK A01 T02700137  RH  044%=      5-min Rain = 0
KTA1 200640Z 17007KT 27/14 A2995 RMK A01 T02690137  RH  044%=      5-min Rain = 0
KTA1 200641Z 16007KT 27/14 A2995 RMK A01 T02700137  RH  044%=      5-min Rain = 0
KTA1 200642Z 16009KT 27/14 A2995 RMK A01 T02690137  RH  044%=      5-min Rain = 0
KTA1 200643Z 16008KT 27/14 A2995 RMK A01 T02690137  RH  044%=      5-min Rain = 0
KTA1 200644Z 16008KT 27/14 A2995 RMK A01 T02690137  RH  044%=      5-min Rain = 0
KTA1 200645Z 16009KT 27/14 A2995 RMK A01 T02680137  RH  044%=      5-min Rain = 0
KTA1 200646Z 16008KT 27/14 A2995 RMK A01 T02680137  RH  044%=      5-min Rain = 0
KTA1 200647Z 16008KT 27/14 A2995 RMK A01 T02680137  RH  044%=      5-min Rain = 0
KTA1 200648Z 16009KT 27/14 A2995 RMK A01 T02670137  RH  045%=      5-min Rain = 0
KTA1 200649Z 16009KT 27/14 A2995 RMK A01 T02670137  RH  045%=      5-min Rain = 0
KTA1 200650Z 15008KT 27/14 A2995 RMK A01 T02670137  RH  045%=      5-min Rain = 0
KTA1 200651Z 16008KT 27/14 A2995 RMK A01 T02660136  RH  045%=      5-min Rain = 0
KTA1 200652Z 16008KT 27/14 A2995 RMK A01 T02660136  RH  045%=      5-min Rain = 0
KTA1 200653Z 16008KT 27/14 A2995 RMK A01 T02660137  RH  045%=      5-min Rain = 0
KTA1 200654Z 16008KT 27/14 A2995 RMK A01 T02660137  RH  045%=      5-min Rain = 0
KTA1 200655Z 16008KT 27/14 A2995 RMK A01 T02650136  RH  045%=      5-min Rain = 0
KTA1 200656Z 16009KT 27/14 A2995 RMK A01 T02650136  RH  045%=      5-min Rain = 0
KTA1 200657Z 16009KT 27/14 A2995 RMK A01 T02650136  RH  045%=      5-min Rain = 0
KTA1 200658Z 16010KT 27/14 A2995 RMK A01 T02650136  RH  045%=      5-min Rain = 0
KTA1 200659Z 16009KT 27/14 A2995 RMK A01 T02650136  RH  045%=      5-min Rain = 0
KTA1 200700Z 16008KT 27/14 A2995 RMK A01 T02650136  RH  045%=      5-min Rain = 0
KTA1 200701Z 16008KT 27/14 A2995 RMK A01 T02650136  RH  045%=      5-min Rain = 0
KTA1 200702Z 16009KT 26/14 A2995 RMK A01 T02640136  RH  045%=      5-min Rain = 0
KTA1 200703Z 16009KT 26/14 A2995 RMK A01 T02640136  RH  045%=      5-min Rain = 0
KTA1 200704Z 16009KT 26/14 A2995 RMK A01 T02640136  RH  045%=      5-min Rain = 0
KTA1 200705Z 16010KT 26/14 A2995 RMK A01 T02640137  RH  045%=      5-min Rain = 0
KTA1 200706Z 16009KT 26/14 A2995 RMK A01 T02640137  RH  045%=      5-min Rain = 0
KTA1 200707Z 16009KT 26/14 A2995 RMK A01 T02630137  RH  046%=      5-min Rain = 0
KTA1 200708Z 16009KT 26/14 A2995 RMK A01 T02630137  RH  046%=      5-min Rain = 0
KTA1 200709Z 15009KT 26/14 A2995 RMK A01 T02630137  RH  046%=      5-min Rain = 0
KTA1 200710Z 16009KT 26/14 A2995 RMK A01 T02620136  RH  046%=      5-min Rain = 0
KTA1 200711Z 16009KT 26/14 A2995 RMK A01 T02620136  RH  046%=      5-min Rain = 0
KTA1 200712Z 15009KT 26/14 A2995 RMK A01 T02620136  RH  046%=      5-min Rain = 0
KTA1 200713Z 15009KT 26/14 A2995 RMK A01 T02620137  RH  046%=      5-min Rain = 0
KTA1 200714Z 15008KT 26/14 A2995 RMK A01 T02620137  RH  046%=      5-min Rain = 0
KTA1 200715Z 15009KT 26/14 A2995 RMK A01 T02610136  RH  046%=      5-min Rain = 0
KTA1 200716Z 15008KT 26/14 A2995 RMK A01 T02610137  RH  046%=      5-min Rain = 0
KTA1 200717Z 15009KT 26/14 A2995 RMK A01 T02610137  RH  046%=      5-min Rain = 0
KTA1 200718Z 15008KT 26/14 A2995 RMK A01 T02610137  RH  046%=      5-min Rain = 0
KTA1 200719Z 15008KT 26/14 A2995 RMK A01 T02610137  RH  046%=      5-min Rain = 0
KTA1 200720Z 15009KT 26/14 A2995 RMK A01 T02610137  RH  046%=      5-min Rain = 0
KTA1 200721Z 15008KT 26/14 A2995 RMK A01 T02600137  RH  047%=      5-min Rain = 0
KTA1 200722Z 15007KT 26/14 A2995 RMK A01 T02600137  RH  047%=      5-min Rain = 0
KTA1 200723Z 15008KT 26/14 A2995 RMK A01 T02600137  RH  047%=      5-min Rain = 0
KTA1 200724Z 16008KT 26/14 A2995 RMK A01 T02600137  RH  047%=      5-min Rain = 0
KTA1 200725Z 15007KT 26/14 A2995 RMK A01 T02600137  RH  047%=      5-min Rain = 0
KTA1 200726Z 16008KT 26/14 A2995 RMK A01 T02590137  RH  047%=      5-min Rain = 0
KTA1 200727Z 15008KT 26/14 A2995 RMK A01 T02590137  RH  047%=      5-min Rain = 0
KTA1 200728Z 15008KT 26/14 A2995 RMK A01 T02590137  RH  047%=      5-min Rain = 0
KTA1 200729Z 16009KT 26/14 A2995 RMK A01 T02590137  RH  047%=      5-min Rain = 0
KTA1 200730Z 15008KT 26/14 A2995 RMK A01 T02590137  RH  047%=      5-min Rain = 0
KTA1 200731Z 16009KT 26/14 A2995 RMK A01 T02590137  RH  047%=      5-min Rain = 0
KTA1 200732Z 15007KT 26/14 A2995 RMK A01 T02600137  RH  047%=      5-min Rain = 0
KTA1 200733Z 16007KT 26/14 A2995 RMK A01 T02600137  RH  047%=      5-min Rain = 0
KTA1 200734Z 16010KT 26/14 A2995 RMK A01 T02600138  RH  047%=      5-min Rain = 0
KTA1 200735Z 16008KT 26/14 A2995 RMK A01 T02600138  RH  047%=      5-min Rain = 0
KTA1 200736Z 16008KT 26/14 A2995 RMK A01 T02600138  RH  047%=      5-min Rain = 0
KTA1 200737Z 16009KT 26/14 A2995 RMK A01 T02600138  RH  047%=      5-min Rain = 0
KTA1 200738Z 16007KT 26/14 A2995 RMK A01 T02590138  RH  047%=      5-min Rain = 0
KTA1 200739Z 16008KT 26/14 A2995 RMK A01 T02590138  RH  047%=      5-min Rain = 0
KTA1 200740Z 16009KT 26/14 A2995 RMK A01 T02590138  RH  047%=      5-min Rain = 0
KTA1 200741Z 16008KT 26/14 A2995 RMK A01 T02580138  RH  047%=      5-min Rain = 0
KTA1 200742Z 16007KT 26/14 A2995 RMK A01 T02580138  RH  047%=      5-min Rain = 0
KTA1 200743Z 16008KT 26/14 A2995 RMK A01 T02590138  RH  047%=      5-min Rain = 0
KTA1 200744Z 16009KT 26/14 A2995 RMK A01 T02580139  RH  048%=      5-min Rain = 0
KTA1 200745Z 16008KT 26/14 A2995 RMK A01 T02580138  RH  048%=      5-min Rain = 0
KTA1 200746Z 16009KT 26/14 A2995 RMK A01 T02580138  RH  048%=      5-min Rain = 0
KTA1 200747Z 16010KT 26/14 A2995 RMK A01 T02580138  RH  048%=      5-min Rain = 0
KTA1 200748Z 16008KT 26/14 A2995 RMK A01 T02580139  RH  048%=      5-min Rain = 0
KTA1 200749Z 16008KT 26/14 A2995 RMK A01 T02580139  RH  048%=      5-min Rain = 0
KTA1 200750Z 16009KT 26/14 A2995 RMK A01 T02580139  RH  048%=      5-min Rain = 0
KTA1 200751Z 16009KT 26/14 A2995 RMK A01 T02580139  RH  048%=      5-min Rain = 0
KTA1 200752Z 16009KT 26/14 A2995 RMK A01 T02580139  RH  048%=      5-min Rain = 0
KTA1 200753Z 16008KT 26/14 A2995 RMK A01 T02580139  RH  048%=      5-min Rain = 0
KTA1 200754Z 16009KT 26/14 A2995 RMK A01 T02580140  RH  048%=      5-min Rain = 0
KTA1 200755Z 16008KT 26/14 A2995 RMK A01 T02590140  RH  048%=      5-min Rain = 0
KTA1 200756Z 16008KT 26/14 A2995 RMK A01 T02590140  RH  048%=      5-min Rain = 0
KTA1 200757Z 15009KT 26/14 A2995 RMK A01 T02580140  RH  048%=      5-min Rain = 0
KTA1 200758Z 15007KT 26/14 A2995 RMK A01 T02580140  RH  048%=      5-min Rain = 0
KTA1 200759Z 16008KT 26/14 A2995 RMK A01 T02580140  RH  048%=      5-min Rain = 0
KTA1 200800Z 15008KT 26/14 A2995 RMK A01 T02570140  RH  048%=      5-min Rain = 0
KTA1 200801Z 15007KT 26/14 A2995 RMK A01 T02570140  RH  049%=      5-min Rain = 0
KTA1 200802Z 16008KT 26/14 A2995 RMK A01 T02560140  RH  049%=      5-min Rain = 0
KTA1 200803Z 15008KT 26/14 A2995 RMK A01 T02560140  RH  049%=      5-min Rain = 0
KTA1 200804Z 15008KT 26/14 A2995 RMK A01 T02560140  RH  049%=      5-min Rain = 0
KTA1 200805Z 15009KT 26/14 A2995 RMK A01 T02550140  RH  049%=      5-min Rain = 0
KTA1 200806Z 16009KT 26/14 A2994 RMK A01 T02550140  RH  049%=      5-min Rain = 0
KTA1 200807Z 16009KT 26/14 A2994 RMK A01 T02550140  RH  049%=      5-min Rain = 0
KTA1 200808Z 16009KT 26/14 A2994 RMK A01 T02550140  RH  049%=      5-min Rain = 0
KTA1 200809Z 16009KT 26/14 A2994 RMK A01 T02550141  RH  049%=      5-min Rain = 0
KTA1 200810Z 16010KT 26/14 A2994 RMK A01 T02550141  RH  049%=      5-min Rain = 0
KTA1 200811Z 16009KT 26/14 A2994 RMK A01 T02550141  RH  049%=      5-min Rain = 0
KTA1 200812Z 15010KT 26/14 A2994 RMK A01 T02550141  RH  049%=      5-min Rain = 0
KTA1 200813Z 16009KT 26/14 A2994 RMK A01 T02550141  RH  049%=      5-min Rain = 0
KTA1 200814Z 16009KT 26/14 A2994 RMK A01 T02550141  RH  049%=      5-min Rain = 0
KTA1 200815Z 15010KT 26/14 A2994 RMK A01 T02550141  RH  049%=      5-min Rain = 0
KTA1 200816Z 15009KT 26/14 A2994 RMK A01 T02550141  RH  049%=      5-min Rain = 0
KTA1 200817Z 15008KT 26/14 A2994 RMK A01 T02550141  RH  049%=      5-min Rain = 0
KTA1 200818Z 15008KT 26/14 A2994 RMK A01 T02550141  RH  049%=      5-min Rain = 0
KTA1 200819Z 15008KT 26/14 A2994 RMK A01 T02550141  RH  049%=      5-min Rain = 0
KTA1 200820Z 15010KT 26/14 A2994 RMK A01 T02550142  RH  050%=      5-min Rain = 0
KTA1 200821Z 15009KT 26/14 A2994 RMK A01 T02550142  RH  050%=      5-min Rain = 0
KTA1 200822Z 14009KT 26/14 A2994 RMK A01 T02550142  RH  050%=      5-min Rain = 0
KTA1 200823Z 15010KT 25/14 A2994 RMK A01 T02540141  RH  050%=      5-min Rain = 0
KTA1 200824Z 15009KT 25/14 A2994 RMK A01 T02540142  RH  050%=      5-min Rain = 0
KTA1 200825Z 15009KT 25/14 A2994 RMK A01 T02540142  RH  050%=      5-min Rain = 0
KTA1 200826Z 15009KT 25/14 A2994 RMK A01 T02530142  RH  050%=      5-min Rain = 0
KTA1 200827Z 15010KT 25/14 A2994 RMK A01 T02530142  RH  050%=      5-min Rain = 0
KTA1 200828Z 15008KT 25/14 A2994 RMK A01 T02530142  RH  050%=      5-min Rain = 0
KTA1 200829Z 15009KT 25/14 A2994 RMK A01 T02530142  RH  050%=      5-min Rain = 0
KTA1 200830Z 15010KT 25/14 A2994 RMK A01 T02520142  RH  050%=      5-min Rain = 0
KTA1 200831Z 15010KT 25/14 A2994 RMK A01 T02520142  RH  050%=      5-min Rain = 0
KTA1 200832Z 14009KT 25/14 A2994 RMK A01 T02520142  RH  050%=      5-min Rain = 0
KTA1 200833Z 15009KT 25/14 A2994 RMK A01 T02520142  RH  050%=      5-min Rain = 0
KTA1 200834Z 15009KT 25/14 A2994 RMK A01 T02520142  RH  050%=      5-min Rain = 0
KTA1 200835Z 15009KT 25/14 A2994 RMK A01 T02520142  RH  051%=      5-min Rain = 0
KTA1 200836Z 15009KT 25/14 A2994 RMK A01 T02520142  RH  051%=      5-min Rain = 0
KTA1 200837Z 15010KT 25/14 A2994 RMK A01 T02520143  RH  051%=      5-min Rain = 0
KTA1 200838Z 15010KT 25/14 A2994 RMK A01 T02520143  RH  051%=      5-min Rain = 0
KTA1 200839Z 15009KT 25/14 A2994 RMK A01 T02520143  RH  051%=      5-min Rain = 0
KTA1 200840Z 15009KT 25/14 A2994 RMK A01 T02520143  RH  051%=      5-min Rain = 0
KTA1 200841Z 15009KT 25/14 A2994 RMK A01 T02520143  RH  051%=      5-min Rain = 0
KTA1 200842Z 15009KT 25/14 A2994 RMK A01 T02520143  RH  051%=      5-min Rain = 0
KTA1 200843Z 15009KT 25/14 A2994 RMK A01 T02520144  RH  051%=      5-min Rain = 0
KTA1 200844Z 15008KT 25/14 A2994 RMK A01 T02520144  RH  051%=      5-min Rain = 0
KTA1 200845Z 15010KT 25/14 A2994 RMK A01 T02520144  RH  051%=      5-min Rain = 0
KTA1 200846Z 15008KT 25/14 A2994 RMK A01 T02530144  RH  051%=      5-min Rain = 0
KTA1 200847Z 15007KT 25/14 A2994 RMK A01 T02530144  RH  051%=      5-min Rain = 0
KTA1 200848Z 15008KT 25/15 A2994 RMK A01 T02520145  RH  051%=      5-min Rain = 0
KTA1 200849Z 15008KT 25/15 A2994 RMK A01 T02520145  RH  051%=      5-min Rain = 0
KTA1 200850Z 15008KT 25/15 A2994 RMK A01 T02520145  RH  052%=      5-min Rain = 0
KTA1 200851Z 15008KT 25/15 A2994 RMK A01 T02510145  RH  052%=      5-min Rain = 0
KTA1 200852Z 16009KT 25/15 A2994 RMK A01 T02510145  RH  052%=      5-min Rain = 0
KTA1 200853Z 16009KT 25/15 A2994 RMK A01 T02520146  RH  052%=      5-min Rain = 0
KTA1 200854Z 16009KT 25/15 A2994 RMK A01 T02520146  RH  052%=      5-min Rain = 0
KTA1 200855Z 16009KT 25/15 A2994 RMK A01 T02510146  RH  052%=      5-min Rain = 0
KTA1 200856Z 15008KT 25/15 A2994 RMK A01 T02510146  RH  052%=      5-min Rain = 0
KTA1 200857Z 16009KT 25/15 A2994 RMK A01 T02510146  RH  052%=      5-min Rain = 0
KTA1 200858Z 16008KT 25/15 A2994 RMK A01 T02510146  RH  052%=      5-min Rain = 0
KTA1 200859Z 15008KT 25/15 A2994 RMK A01 T02500147  RH  052%=      5-min Rain = 0
KTA1 200900Z 16009KT 25/15 A2994 RMK A01 T02500146  RH  053%=      5-min Rain = 0
KTA1 200901Z 16008KT 25/15 A2994 RMK A01 T02500147  RH  053%=      5-min Rain = 0
KTA1 200902Z 15009KT 25/15 A2994 RMK A01 T02500147  RH  053%=      5-min Rain = 0
KTA1 200903Z 15010KT 25/15 A2994 RMK A01 T02490147  RH  053%=      5-min Rain = 0
KTA1 200904Z 15009KT 25/15 A2994 RMK A01 T02490147  RH  053%=      5-min Rain = 0
KTA1 200905Z 15008KT 25/15 A2994 RMK A01 T02490148  RH  053%=      5-min Rain = 0
KTA1 200906Z 16010KT 25/15 A2994 RMK A01 T02490148  RH  053%=      5-min Rain = 0
KTA1 200907Z 16009KT 25/15 A2994 RMK A01 T02490147  RH  053%=      5-min Rain = 0
KTA1 200908Z 15009KT 25/15 A2994 RMK A01 T02500148  RH  053%=      5-min Rain = 0
KTA1 200909Z 15008KT 25/15 A2995 RMK A01 T02500148  RH  053%=      5-min Rain = 0
KTA1 200910Z 15010KT 25/15 A2994 RMK A01 T02500148  RH  053%=      5-min Rain = 0
KTA1 200911Z 16009KT 25/15 A2994 RMK A01 T02500149  RH  053%=      5-min Rain = 0
KTA1 200912Z 15009KT 25/15 A2994 RMK A01 T02500149  RH  054%=      5-min Rain = 0
KTA1 200913Z 16010KT 25/15 A2994 RMK A01 T02500149  RH  054%=      5-min Rain = 0
KTA1 200914Z 15009KT 25/15 A2994 RMK A01 T02500150  RH  054%=      5-min Rain = 0
KTA1 200915Z 16010KT 25/15 A2994 RMK A01 T02500150  RH  054%=      5-min Rain = 0
KTA1 200916Z 15011KT 25/15 A2994 RMK A01 T02500150  RH  054%=      5-min Rain = 0
KTA1 200917Z 15011KT 25/15 A2994 RMK A01 T02500150  RH  054%=      5-min Rain = 0
KTA1 200918Z 15010KT 25/15 A2994 RMK A01 T02500151  RH  054%=      5-min Rain = 0
KTA1 200919Z 16009KT 25/15 A2994 RMK A01 T02500150  RH  054%=      5-min Rain = 0
KTA1 200920Z 16011KT 25/15 A2994 RMK A01 T02500151  RH  054%=      5-min Rain = 0
KTA1 200921Z 16010KT 25/15 A2994 RMK A01 T02500151  RH  054%=      5-min Rain = 0
KTA1 200922Z 16010KT 25/15 A2994 RMK A01 T02500152  RH  054%=      5-min Rain = 0
KTA1 200923Z 16009KT 25/15 A2994 RMK A01 T02500152  RH  054%=      5-min Rain = 0
KTA1 200924Z 16011KT 25/15 A2994 RMK A01 T02500152  RH  054%=      5-min Rain = 0
KTA1 200925Z 16010KT 25/15 A2994 RMK A01 T02500152  RH  055%=      5-min Rain = 0
KTA1 200926Z 16011KT 25/15 A2994 RMK A01 T02500153  RH  055%=      5-min Rain = 0
KTA1 200927Z 16010KT 25/15 A2994 RMK A01 T02500153  RH  055%=      5-min Rain = 0
KTA1 200928Z 16010KT 25/15 A2994 RMK A01 T02500153  RH  055%=      5-min Rain = 0
KTA1 200929Z 16010G15KT 25/15 A2994 RMK A01 T02500153  RH  055%=      5-min Rain = 0
KTA1 200930Z 15011KT 25/15 A2994 RMK A01 T02500153  RH  055%=      5-min Rain = 0
KTA1 200931Z 16011KT 25/15 A2994 RMK A01 T02500154  RH  055%=      5-min Rain = 0
KTA1 200932Z 16011KT 25/15 A2994 RMK A01 T02500154  RH  055%=      5-min Rain = 0
KTA1 200933Z 16010KT 25/15 A2994 RMK A01 T02510154  RH  055%=      5-min Rain = 0
KTA1 200934Z 16010KT 25/15 A2994 RMK A01 T02510154  RH  055%=      5-min Rain = 0
KTA1 200935Z 16012KT 25/15 A2994 RMK A01 T02500154  RH  055%=      5-min Rain = 0
KTA1 200936Z 16009KT 25/15 A2994 RMK A01 T02510154  RH  055%=      5-min Rain = 0
KTA1 200937Z 16010KT 25/15 A2994 RMK A01 T02510154  RH  055%=      5-min Rain = 0
KTA1 200938Z 16010KT 25/16 A2994 RMK A01 T02510155  RH  055%=      5-min Rain = 0
KTA1 200939Z 16011KT 25/16 A2994 RMK A01 T02510155  RH  055%=      5-min Rain = 0
KTA1 200940Z 16010KT 25/16 A2994 RMK A01 T02510155  RH  055%=      5-min Rain = 0
KTA1 200941Z 16010KT 25/16 A2994 RMK A01 T02510155  RH  055%=      5-min Rain = 0
KTA1 200942Z 17011KT 25/16 A2994 RMK A01 T02510155  RH  055%=      5-min Rain = 0
KTA1 200943Z 16010KT 25/16 A2994 RMK A01 T02510155  RH  055%=      5-min Rain = 0
KTA1 200944Z 16010KT 25/16 A2994 RMK A01 T02510155  RH  055%=      5-min Rain = 0
KTA1 200945Z 16011KT 25/16 A2994 RMK A01 T02510156  RH  055%=      5-min Rain = 0
KTA1 200946Z 16010KT 25/16 A2994 RMK A01 T02510156  RH  055%=      5-min Rain = 0
KTA1 200947Z 16012KT 25/16 A2994 RMK A01 T02510155  RH  055%=      5-min Rain = 0
KTA1 200948Z 16011KT 25/16 A2994 RMK A01 T02510156  RH  055%=      5-min Rain = 0
KTA1 200949Z 16009KT 25/16 A2994 RMK A01 T02510156  RH  055%=      5-min Rain = 0
KTA1 200950Z 16012KT 25/16 A2994 RMK A01 T02510156  RH  056%=      5-min Rain = 0
KTA1 200951Z 16009KT 25/16 A2994 RMK A01 T02510156  RH  056%=      5-min Rain = 0
KTA1 200952Z 17009KT 25/16 A2994 RMK A01 T02510156  RH  056%=      5-min Rain = 0
KTA1 200953Z 16010KT 25/16 A2994 RMK A01 T02510156  RH  056%=      5-min Rain = 0
KTA1 200954Z 16009KT 25/16 A2994 RMK A01 T02510156  RH  056%=      5-min Rain = 0
KTA1 200955Z 17011KT 25/16 A2994 RMK A01 T02510157  RH  056%=      5-min Rain = 0
KTA1 200956Z 17010KT 25/16 A2994 RMK A01 T02510157  RH  056%=      5-min Rain = 0
KTA1 200957Z 16007KT 25/16 A2994 RMK A01 T02510157  RH  056%=      5-min Rain = 0
KTA1 200958Z 17010KT 25/16 A2994 RMK A01 T02500157  RH  056%=      5-min Rain = 0
KTA1 200959Z 17009KT 25/16 A2994 RMK A01 T02500157  RH  056%=      5-min Rain = 0
KTA1 201000Z 17009KT 25/16 A2994 RMK A01 T02500157  RH  056%=      5-min Rain = 0
KTA1 201001Z 17011KT 25/16 A2994 RMK A01 T02500157  RH  056%=      5-min Rain = 0
KTA1 201002Z 17009KT 25/16 A2994 RMK A01 T02500158  RH  056%=      5-min Rain = 0
KTA1 201003Z 17009KT 25/16 A2994 RMK A01 T02500158  RH  056%=      5-min Rain = 0
KTA1 201004Z 16008KT 25/16 A2994 RMK A01 T02500157  RH  056%=      5-min Rain = 0
KTA1 201005Z 16009KT 25/16 A2994 RMK A01 T02500158  RH  057%=      5-min Rain = 0
KTA1 201006Z 16010KT 25/16 A2994 RMK A01 T02500158  RH  057%=      5-min Rain = 0
KTA1 201007Z 16009KT 25/16 A2994 RMK A01 T02500158  RH  057%=      5-min Rain = 0
KTA1 201008Z 16012KT 25/16 A2994 RMK A01 T02500158  RH  057%=      5-min Rain = 0
KTA1 201009Z 16011KT 25/16 A2994 RMK A01 T02500158  RH  057%=      5-min Rain = 0
KTA1 201010Z 16010KT 25/16 A2994 RMK A01 T02500158  RH  057%=      5-min Rain = 0
KTA1 201011Z 16009KT 25/16 A2994 RMK A01 T02490158  RH  057%=      5-min Rain = 0
KTA1 201012Z 16011KT 25/16 A2994 RMK A01 T02490158  RH  057%=      5-min Rain = 0
KTA1 201013Z 16010KT 25/16 A2994 RMK A01 T02490159  RH  057%=      5-min Rain = 0
KTA1 201014Z 16011KT 25/16 A2994 RMK A01 T02490159  RH  057%=      5-min Rain = 0
KTA1 201015Z 16012KT 25/16 A2994 RMK A01 T02480159  RH  057%=      5-min Rain = 0
KTA1 201016Z 16010KT 25/16 A2994 RMK A01 T02480159  RH  057%=      5-min Rain = 0
KTA1 201017Z 16009KT 25/16 A2994 RMK A01 T02480159  RH  058%=      5-min Rain = 0
KTA1 201018Z 16010KT 25/16 A2994 RMK A01 T02480159  RH  058%=      5-min Rain = 0
KTA1 201019Z 16010KT 25/16 A2994 RMK A01 T02480160  RH  058%=      5-min Rain = 0
KTA1 201020Z 16012KT 25/16 A2994 RMK A01 T02480160  RH  058%=      5-min Rain = 0
KTA1 201021Z 16011KT 25/16 A2994 RMK A01 T02480160  RH  058%=      5-min Rain = 0
KTA1 201022Z 16012KT 25/16 A2994 RMK A01 T02480160  RH  058%=      5-min Rain = 0
KTA1 201023Z 16011KT 25/16 A2994 RMK A01 T02480160  RH  058%=      5-min Rain = 0
KTA1 201024Z 16009KT 25/16 A2994 RMK A01 T02480160  RH  058%=      5-min Rain = 0
KTA1 201025Z 16009KT 25/16 A2994 RMK A01 T02480160  RH  058%=      5-min Rain = 0
KTA1 201026Z 16010KT 25/16 A2994 RMK A01 T02470160  RH  058%=      5-min Rain = 0
KTA1 201027Z 16010KT 25/16 A2994 RMK A01 T02470161  RH  059%=      5-min Rain = 0
KTA1 201028Z 16010KT 25/16 A2994 RMK A01 T02470161  RH  059%=      5-min Rain = 0
KTA1 201029Z 16009KT 25/16 A2994 RMK A01 T02470161  RH  059%=      5-min Rain = 0
KTA1 201030Z 16010KT 25/16 A2994 RMK A01 T02470161  RH  059%=      5-min Rain = 0
KTA1 201031Z 16009KT 25/16 A2994 RMK A01 T02470161  RH  059%=      5-min Rain = 0
KTA1 201032Z 16010KT 25/16 A2994 RMK A01 T02470161  RH  059%=      5-min Rain = 0
KTA1 201033Z 16010KT 25/16 A2994 RMK A01 T02470162  RH  059%=      5-min Rain = 0
KTA1 201034Z 16009KT 25/16 A2994 RMK A01 T02470162  RH  059%=      5-min Rain = 0
KTA1 201035Z 16008KT 25/16 A2994 RMK A01 T02460161  RH  059%=      5-min Rain = 0
KTA1 201036Z 16009KT 25/16 A2994 RMK A01 T02460161  RH  059%=      5-min Rain = 0
KTA1 201037Z 16009KT 25/16 A2994 RMK A01 T02460162  RH  059%=      5-min Rain = 0
KTA1 201038Z 16008KT 25/16 A2994 RMK A01 T02450162  RH  059%=      5-min Rain = 0
KTA1 201039Z 17008KT 25/16 A2994 RMK A01 T02450162  RH  060%=      5-min Rain = 0
KTA1 201040Z 16008KT 25/16 A2994 RMK A01 T02450162  RH  060%=      5-min Rain = 0
KTA1 201041Z 16009KT 25/16 A2994 RMK A01 T02450162  RH  060%=      5-min Rain = 0
KTA1 201042Z 16007KT 25/16 A2994 RMK A01 T02450163  RH  060%=      5-min Rain = 0
KTA1 201043Z 17007KT 25/16 A2994 RMK A01 T02450162  RH  060%=      5-min Rain = 0
KTA1 201044Z 16008KT 24/16 A2994 RMK A01 T02440162  RH  060%=      5-min Rain = 0
KTA1 201045Z 17007KT 24/16 A2994 RMK A01 T02440162  RH  060%=      5-min Rain = 0
KTA1 201046Z 17008KT 25/16 A2994 RMK A01 T02450163  RH  060%=      5-min Rain = 0
KTA1 201047Z 17008KT 25/16 A2994 RMK A01 T02450163  RH  060%=      5-min Rain = 0
KTA1 201048Z 17008KT 25/16 A2994 RMK A01 T02450164  RH  061%=      5-min Rain = 0
KTA1 201049Z 17008KT 25/16 A2994 RMK A01 T02450164  RH  061%=      5-min Rain = 0
KTA1 201050Z 17008KT 24/16 A2994 RMK A01 T02440164  RH  061%=      5-min Rain = 0
KTA1 201051Z 17010KT 24/16 A2994 RMK A01 T02440164  RH  061%=      5-min Rain = 0
KTA1 201052Z 17009KT 24/16 A2994 RMK A01 T02440164  RH  061%=      5-min Rain = 0
KTA1 201053Z 17008KT 24/16 A2994 RMK A01 T02440164  RH  061%=      5-min Rain = 0
KTA1 201054Z 16008KT 24/16 A2994 RMK A01 T02440164  RH  061%=      5-min Rain = 0
KTA1 201055Z 17007KT 24/17 A2994 RMK A01 T02440165  RH  061%=      5-min Rain = 0
KTA1 201056Z 17007KT 24/16 A2994 RMK A01 T02440164  RH  061%=      5-min Rain = 0
KTA1 201057Z 17009KT 24/16 A2994 RMK A01 T02430164  RH  061%=      5-min Rain = 0
KTA1 201058Z 17007KT 24/17 A2994 RMK A01 T02440165  RH  061%=      5-min Rain = 0
KTA1 201059Z 17008KT 24/17 A2994 RMK A01 T02440165  RH  061%=      5-min Rain = 0
KTA1 201100Z 17007KT 24/17 A2994 RMK A01 T02440165  RH  062%=      5-min Rain = 0
KTA1 201101Z 17009KT 24/17 A2994 RMK A01 T02430165  RH  062%=      5-min Rain = 0
KTA1 201102Z 17009KT 24/17 A2994 RMK A01 T02430166  RH  062%=      5-min Rain = 0
KTA1 201103Z 17010KT 24/17 A2994 RMK A01 T02430166  RH  062%=      5-min Rain = 0
KTA1 201104Z 16007KT 24/17 A2994 RMK A01 T02440166  RH  062%=      5-min Rain = 0
KTA1 201105Z 17009KT 24/17 A2994 RMK A01 T02440166  RH  062%=      5-min Rain = 0
KTA1 201106Z 17007KT 24/17 A2994 RMK A01 T02440166  RH  062%=      5-min Rain = 0
KTA1 201107Z 17007KT 24/17 A2994 RMK A01 T02430166  RH  062%=      5-min Rain = 0
KTA1 201108Z 17007KT 24/17 A2994 RMK A01 T02420166  RH  062%=      5-min Rain = 0
KTA1 201109Z 16007KT 24/17 A2994 RMK A01 T02420166  RH  063%=      5-min Rain = 0
KTA1 201110Z 17007KT 24/17 A2994 RMK A01 T02420166  RH  063%=      5-min Rain = 0
KTA1 201111Z 16008KT 24/17 A2994 RMK A01 T02420167  RH  063%=      5-min Rain = 0
KTA1 201112Z 16007KT 24/17 A2994 RMK A01 T02420167  RH  063%=      5-min Rain = 0
KTA1 201113Z 16007KT 24/17 A2994 RMK A01 T02420167  RH  063%=      5-min Rain = 0
KTA1 201114Z 17008KT 24/17 A2994 RMK A01 T02420167  RH  063%=      5-min Rain = 0
KTA1 201115Z 17009KT 24/17 A2994 RMK A01 T02420167  RH  063%=      5-min Rain = 0
KTA1 201116Z 17007KT 24/17 A2994 RMK A01 T02420167  RH  063%=      5-min Rain = 0
KTA1 201117Z 17007KT 24/17 A2994 RMK A01 T02420167  RH  063%=      5-min Rain = 0
KTA1 201118Z 17008KT 24/17 A2994 RMK A01 T02420168  RH  063%=      5-min Rain = 0
KTA1 201119Z 17007KT 24/17 A2994 RMK A01 T02420168  RH  063%=      5-min Rain = 0
KTA1 201120Z 16007KT 24/17 A2994 RMK A01 T02420168  RH  063%=      5-min Rain = 0
KTA1 201121Z 17007KT 24/17 A2994 RMK A01 T02420169  RH  063%=      5-min Rain = 0
KTA1 201122Z 16008KT 24/17 A2994 RMK A01 T02420168  RH  064%=      5-min Rain = 0
KTA1 201123Z 17009KT 24/17 A2994 RMK A01 T02410168  RH  064%=      5-min Rain = 0
KTA1 201124Z 16008KT 24/17 A2994 RMK A01 T02410169  RH  064%=      5-min Rain = 0
KTA1 201125Z 16009KT 24/17 A2994 RMK A01 T02420169  RH  064%=      5-min Rain = 0
KTA1 201126Z 16010KT 24/17 A2994 RMK A01 T02410169  RH  064%=      5-min Rain = 0
KTA1 201127Z 16009KT 24/17 A2994 RMK A01 T02410169  RH  064%=      5-min Rain = 0
KTA1 201128Z 16010KT 24/17 A2994 RMK A01 T02420169  RH  064%=      5-min Rain = 0
KTA1 201129Z 16011KT 24/17 A2994 RMK A01 T02420170  RH  064%=      5-min Rain = 0
KTA1 201130Z 16008KT 24/17 A2994 RMK A01 T02430170  RH  064%=      5-min Rain = 0
KTA1 201131Z 16009KT 24/17 A2994 RMK A01 T02430170  RH  064%=      5-min Rain = 0
KTA1 201132Z 16008KT 24/17 A2994 RMK A01 T02420170  RH  064%=      5-min Rain = 0
KTA1 201133Z 16008KT 24/17 A2994 RMK A01 T02420170  RH  064%=      5-min Rain = 0
KTA1 201134Z 16008KT 24/17 A2994 RMK A01 T02420170  RH  064%=      5-min Rain = 0
KTA1 201135Z 16008KT 24/17 A2994 RMK A01 T02420170  RH  064%=      5-min Rain = 0
KTA1 201136Z 16008KT 24/17 A2994 RMK A01 T02410170  RH  064%=      5-min Rain = 0
KTA1 201137Z 17008KT 24/17 A2994 RMK A01 T02410170  RH  064%=      5-min Rain = 0
KTA1 201138Z 16006KT 24/17 A2995 RMK A01 T02410170  RH  065%=      5-min Rain = 0
KTA1 201139Z 17009KT 24/17 A2994 RMK A01 T02410170  RH  065%=      5-min Rain = 0
KTA1 201140Z 16009KT 24/17 A2994 RMK A01 T02410171  RH  065%=      5-min Rain = 0
KTA1 201141Z 16008KT 24/17 A2994 RMK A01 T02410171  RH  065%=      5-min Rain = 0
KTA1 201142Z 16008KT 24/17 A2995 RMK A01 T02410171  RH  065%=      5-min Rain = 0
KTA1 201143Z 16007KT 24/17 A2995 RMK A01 T02410171  RH  065%=      5-min Rain = 0
KTA1 201144Z 16009KT 24/17 A2995 RMK A01 T02410171  RH  065%=      5-min Rain = 0
KTA1 201145Z 16008KT 24/17 A2995 RMK A01 T02410171  RH  065%=      5-min Rain = 0
KTA1 201146Z 16009KT 24/17 A2995 RMK A01 T02400171  RH  065%=      5-min Rain = 0
KTA1 201147Z 16008KT 24/17 A2995 RMK A01 T02400171  RH  065%=      5-min Rain = 0
KTA1 201148Z 16009KT 24/17 A2995 RMK A01 T02400171  RH  065%=      5-min Rain = 0
KTA1 201149Z 16008KT 24/17 A2995 RMK A01 T02400171  RH  065%=      5-min Rain = 0
KTA1 201150Z 16007KT 24/17 A2995 RMK A01 T02400171  RH  065%=      5-min Rain = 0
KTA1 201151Z 16007KT 24/17 A2995 RMK A01 T02390171  RH  066%=      5-min Rain = 0
KTA1 201152Z 16008KT 24/17 A2995 RMK A01 T02390171  RH  066%=      5-min Rain = 0
KTA1 201153Z 16009KT 24/17 A2995 RMK A01 T02390171  RH  066%=      5-min Rain = 0
KTA1 201154Z 17007KT 24/17 A2995 RMK A01 T02390171  RH  066%=      5-min Rain = 0
KTA1 201155Z 16008KT 24/17 A2995 RMK A01 T02390171  RH  066%=      5-min Rain = 0
KTA1 201156Z 17008KT 24/17 A2995 RMK A01 T02390171  RH  066%=      5-min Rain = 0
KTA1 201157Z 16008KT 24/17 A2995 RMK A01 T02390172  RH  066%=      5-min Rain = 0
KTA1 201158Z 16007KT 24/17 A2995 RMK A01 T02390172  RH  066%=      5-min Rain = 0
KTA1 201159Z 16008KT 24/17 A2995 RMK A01 T02390172  RH  066%=      5-min Rain = 0
KTA1 201200Z 16008KT 24/17 A2995 RMK A01 T02390172  RH  066%=      5-min Rain = 0
KTA1 201201Z 16008KT 24/17 A2995 RMK A01 T02390172  RH  066%=      5-min Rain = 0
KTA1 201202Z 16009KT 24/17 A2995 RMK A01 T02380172  RH  067%=      5-min Rain = 0
KTA1 201203Z 16008KT 24/17 A2995 RMK A01 T02380172  RH  067%=      5-min Rain = 0
KTA1 201204Z 16008KT 24/17 A2995 RMK A01 T02380172  RH  067%=      5-min Rain = 0
KTA1 201205Z 16008KT 24/17 A2995 RMK A01 T02370173  RH  067%=      5-min Rain = 0
KTA1 201206Z 15008KT 24/17 A2995 RMK A01 T02370173  RH  067%=      5-min Rain = 0
KTA1 201207Z 16008KT 24/17 A2995 RMK A01 T02370173  RH  067%=      5-min Rain = 0
KTA1 201208Z 16008KT 24/17 A2995 RMK A01 T02370173  RH  067%=      5-min Rain = 0
KTA1 201209Z 16009KT 24/17 A2995 RMK A01 T02370173  RH  067%=      5-min Rain = 0
KTA1 201210Z 16008KT 24/17 A2995 RMK A01 T02370173  RH  067%=      5-min Rain = 0
KTA1 201211Z 16010KT 24/17 A2995 RMK A01 T02370173  RH  067%=      5-min Rain = 0
KTA1 201212Z 16009KT 24/17 A2995 RMK A01 T02380173  RH  067%=      5-min Rain = 0
KTA1 201213Z 16008KT 24/17 A2995 RMK A01 T02380173  RH  067%=      5-min Rain = 0
KTA1 201214Z 16009KT 24/17 A2995 RMK A01 T02380173  RH  067%=      5-min Rain = 0
KTA1 201215Z 17010KT 24/17 A2995 RMK A01 T02380173  RH  067%=      5-min Rain = 0
KTA1 201216Z 17008KT 24/17 A2995 RMK A01 T02390173  RH  067%=      5-min Rain = 0
KTA1 201217Z 16009KT 24/17 A2995 RMK A01 T02390173  RH  067%=      5-min Rain = 0
KTA1 201218Z 17007KT 24/17 A2995 RMK A01 T02400173  RH  066%=      5-min Rain = 0
KTA1 201219Z 17011KT 24/17 A2995 RMK A01 T02400173  RH  066%=      5-min Rain = 0
KTA1 201220Z 17009KT 24/17 A2995 RMK A01 T02410173  RH  066%=      5-min Rain = 0
KTA1 201221Z 16010KT 24/17 A2995 RMK A01 T02410173  RH  066%=      5-min Rain = 0
KTA1 201222Z 17009KT 24/17 A2995 RMK A01 T02410173  RH  066%=      5-min Rain = 0
KTA1 201223Z 17008KT 24/17 A2995 RMK A01 T02410173  RH  066%=      5-min Rain = 0
KTA1 201224Z 16010KT 24/17 A2995 RMK A01 T02420173  RH  066%=      5-min Rain = 0
KTA1 201225Z 17010KT 24/17 A2995 RMK A01 T02420173  RH  065%=      5-min Rain = 0
KTA1 201226Z 17009KT 24/17 A2995 RMK A01 T02420173  RH  065%=      5-min Rain = 0
KTA1 201227Z 16010KT 24/17 A2995 RMK A01 T02420173  RH  065%=      5-min Rain = 0
KTA1 201228Z 16009KT 24/17 A2995 RMK A01 T02430173  RH  065%=      5-min Rain = 0
KTA1 201229Z 17009KT 24/17 A2995 RMK A01 T02430173  RH  065%=      5-min Rain = 0
KTA1 201230Z 17009KT 24/17 A2995 RMK A01 T02430173  RH  065%=      5-min Rain = 0
KTA1 201231Z 17009KT 24/17 A2995 RMK A01 T02430173  RH  065%=      5-min Rain = 0
KTA1 201232Z 17006KT 24/17 A2995 RMK A01 T02430173  RH  065%=      5-min Rain = 0
KTA1 201233Z 17009KT 24/17 A2995 RMK A01 T02430173  RH  065%=      5-min Rain = 0
KTA1 201234Z 17008KT 24/17 A2995 RMK A01 T02430173  RH  065%=      5-min Rain = 0
KTA1 201235Z 16009KT 24/17 A2995 RMK A01 T02440173  RH  065%=      5-min Rain = 0
KTA1 201236Z 17009KT 24/17 A2995 RMK A01 T02440173  RH  065%=      5-min Rain = 0
KTA1 201237Z 17008KT 24/17 A2995 RMK A01 T02440173  RH  064%=      5-min Rain = 0
KTA1 201238Z 16008KT 25/17 A2995 RMK A01 T02450173  RH  064%=      5-min Rain = 0
KTA1 201239Z 16008KT 25/17 A2995 RMK A01 T02450174  RH  065%=      5-min Rain = 0
KTA1 201240Z 16008KT 25/17 A2995 RMK A01 T02450173  RH  064%=      5-min Rain = 0
KTA1 201241Z 16009KT 24/17 A2995 RMK A01 T02440173  RH  064%=      5-min Rain = 0
KTA1 201242Z 16010KT 25/17 A2995 RMK A01 T02450173  RH  064%=      5-min Rain = 0
KTA1 201243Z 17010KT 25/17 A2995 RMK A01 T02450173  RH  064%=      5-min Rain = 0
KTA1 201244Z 17010KT 25/17 A2995 RMK A01 T02450173  RH  064%=      5-min Rain = 0
KTA1 201245Z 17011KT 25/17 A2995 RMK A01 T02450172  RH  064%=      5-min Rain = 0
KTA1 201246Z 17009KT 25/17 A2995 RMK A01 T02460172  RH  064%=      5-min Rain = 0
KTA1 201247Z 17010KT 25/17 A2995 RMK A01 T02460173  RH  064%=      5-min Rain = 0
KTA1 201248Z 16010KT 25/17 A2995 RMK A01 T02460172  RH  064%=      5-min Rain = 0
KTA1 201249Z 16010KT 25/17 A2995 RMK A01 T02460173  RH  063%=      5-min Rain = 0
KTA1 201250Z 16009KT 25/17 A2995 RMK A01 T02470173  RH  064%=      5-min Rain = 0
KTA1 201251Z 16011KT 25/17 A2995 RMK A01 T02470173  RH  064%=      5-min Rain = 0
KTA1 201252Z 16008KT 25/17 A2996 RMK A01 T02460173  RH  064%=      5-min Rain = 0
KTA1 201253Z 16010KT 25/17 A2996 RMK A01 T02460173  RH  064%=      5-min Rain = 0
KTA1 201254Z 16010KT 25/17 A2996 RMK A01 T02470173  RH  064%=      5-min Rain = 0
KTA1 201255Z 16009KT 25/17 A2996 RMK A01 T02470173  RH  063%=      5-min Rain = 0
KTA1 201256Z 16010KT 25/17 A2996 RMK A01 T02470173  RH  063%=      5-min Rain = 0
KTA1 201257Z 16010G17KT 25/17 A2996 RMK A01 T02470173  RH  063%=      5-min Rain = 0
KTA1 201258Z 16012KT 25/17 A2996 RMK A01 T02470173  RH  063%=      5-min Rain = 0
KTA1 201259Z 17011KT 25/17 A2996 RMK A01 T02470172  RH  063%=      5-min Rain = 0
KTA1 201300Z 16011KT 25/17 A2996 RMK A01 T02480172  RH  063%=      5-min Rain = 0
KTA1 201301Z 16009KT 25/17 A2996 RMK A01 T02480173  RH  063%=      5-min Rain = 0
KTA1 201302Z 16010KT 25/17 A2996 RMK A01 T02480173  RH  063%=      5-min Rain = 0
KTA1 201303Z 16011KT 25/17 A2996 RMK A01 T02480172  RH  063%=      5-min Rain = 0
KTA1 201304Z 17009KT 25/17 A2996 RMK A01 T02480173  RH  063%=      5-min Rain = 0
KTA1 201305Z 17010KT 25/17 A2996 RMK A01 T02490173  RH  063%=      5-min Rain = 0
KTA1 201306Z 17009KT 25/17 A2996 RMK A01 T02490173  RH  063%=      5-min Rain = 0
KTA1 201307Z 17010KT 25/17 A2996 RMK A01 T02500173  RH  062%=      5-min Rain = 0
KTA1 201308Z 17011KT 25/17 A2996 RMK A01 T02500173  RH  062%=      5-min Rain = 0
KTA1 201309Z 17013KT 25/17 A2996 RMK A01 T02500172  RH  062%=      5-min Rain = 0
KTA1 201310Z 16014KT 25/17 A2996 RMK A01 T02500172  RH  062%=      5-min Rain = 0
KTA1 201311Z 17012KT 25/17 A2996 RMK A01 T02510173  RH  062%=      5-min Rain = 0
KTA1 201312Z 16012KT 25/17 A2996 RMK A01 T02500172  RH  062%=      5-min Rain = 0
KTA1 201313Z 17013KT 25/17 A2996 RMK A01 T02510172  RH  062%=      5-min Rain = 0
KTA1 201314Z 17013KT 25/17 A2996 RMK A01 T02510172  RH  062%=      5-min Rain = 0
KTA1 201315Z 17013KT 25/17 A2996 RMK A01 T02510172  RH  062%=      5-min Rain = 0
KTA1 201316Z 18013KT 25/17 A2996 RMK A01 T02510172  RH  062%=      5-min Rain = 0
KTA1 201317Z 17010KT 25/17 A2996 RMK A01 T02510172  RH  062%=      5-min Rain = 0
KTA1 201318Z 17011KT 25/17 A2996 RMK A01 T02510173  RH  062%=      5-min Rain = 0
KTA1 201319Z 16012KT 25/17 A2996 RMK A01 T02520172  RH  061%=      5-min Rain = 0
KTA1 201320Z 17013KT 25/17 A2996 RMK A01 T02520172  RH  061%=      5-min Rain = 0
KTA1 201321Z 16013KT 25/17 A2996 RMK A01 T02520172  RH  061%=      5-min Rain = 0
KTA1 201322Z 17010KT 25/17 A2996 RMK A01 T02520173  RH  061%=      5-min Rain = 0
KTA1 201323Z 17013KT 25/17 A2996 RMK A01 T02530173  RH  061%=      5-min Rain = 0
KTA1 201324Z 17011KT 25/17 A2996 RMK A01 T02530172  RH  061%=      5-min Rain = 0
KTA1 201325Z 17013KT 25/17 A2996 RMK A01 T02530173  RH  061%=      5-min Rain = 0
KTA1 201326Z 17013KT 25/17 A2996 RMK A01 T02530173  RH  061%=      5-min Rain = 0
KTA1 201327Z 17014KT 25/17 A2996 RMK A01 T02530173  RH  061%=      5-min Rain = 0
KTA1 201328Z 17014KT 25/17 A2996 RMK A01 T02540173  RH  061%=      5-min Rain = 0
KTA1 201329Z 17013KT 25/17 A2996 RMK A01 T02540173  RH  061%=      5-min Rain = 0
KTA1 201330Z 17014KT 25/17 A2996 RMK A01 T02540172  RH  061%=      5-min Rain = 0
KTA1 201331Z 17013KT 25/17 A2996 RMK A01 T02540173  RH  061%=      5-min Rain = 0
KTA1 201332Z 17013G18KT 25/17 A2996 RMK A01 T02540173  RH  061%=      5-min Rain = 0
KTA1 201333Z 17012KT 25/17 A2996 RMK A01 T02540173  RH  061%=      5-min Rain = 0
KTA1 201334Z 17011KT 26/17 A2996 RMK A01 T02550173  RH  061%=      5-min Rain = 0
KTA1 201335Z 17013KT 26/17 A2996 RMK A01 T02550174  RH  060%=      5-min Rain = 0
KTA1 201336Z 17011KT 26/17 A2996 RMK A01 T02560174  RH  060%=      5-min Rain = 0
KTA1 201337Z 17012G17KT 26/17 A2996 RMK A01 T02560173  RH  060%=      5-min Rain = 0
KTA1 201338Z 17014KT 26/17 A2996 RMK A01 T02560173  RH  060%=      5-min Rain = 0
KTA1 201339Z 17012KT 26/17 A2996 RMK A01 T02560173  RH  060%=      5-min Rain = 0
KTA1 201340Z 17013KT 26/17 A2996 RMK A01 T02570173  RH  060%=      5-min Rain = 0
KTA1 201341Z 17014KT 26/17 A2996 RMK A01 T02560173  RH  060%=      5-min Rain = 0
KTA1 201342Z 17012KT 26/17 A2996 RMK A01 T02570173  RH  060%=      5-min Rain = 0
KTA1 201343Z 17012KT 26/17 A2996 RMK A01 T02570173  RH  060%=      5-min Rain = 0
KTA1 201344Z 17014KT 26/17 A2996 RMK A01 T02570174  RH  060%=      5-min Rain = 0
KTA1 201345Z 17014KT 26/17 A2997 RMK A01 T02580174  RH  060%=      5-min Rain = 0
KTA1 201346Z 17011KT 26/17 A2997 RMK A01 T02570174  RH  060%=      5-min Rain = 0
KTA1 201347Z 18013KT 26/17 A2997 RMK A01 T02580173  RH  060%=      5-min Rain = 0
KTA1 201348Z 18013KT 26/17 A2997 RMK A01 T02580173  RH  060%=      5-min Rain = 0
KTA1 201349Z 17013KT 26/17 A2997 RMK A01 T02580173  RH  059%=      5-min Rain = 0
KTA1 201350Z 17010G15KT 26/18 A2997 RMK A01 T02580175  RH  060%=      5-min Rain = 0
KTA1 201351Z 18013G18KT 26/17 A2997 RMK A01 T02580173  RH  059%=      5-min Rain = 0
KTA1 201352Z 19013KT 26/17 A2997 RMK A01 T02590174  RH  059%=      5-min Rain = 0
KTA1 201353Z 18011KT 26/17 A2997 RMK A01 T02590174  RH  059%=      5-min Rain = 0
KTA1 201354Z 17010KT 26/17 A2997 RMK A01 T02590174  RH  059%=      5-min Rain = 0
KTA1 201355Z 18010KT 26/17 A2997 RMK A01 T02600174  RH  059%=      5-min Rain = 0
KTA1 201356Z 18009KT 26/18 A2997 RMK A01 T02610175  RH  059%=      5-min Rain = 0
KTA1 201357Z 18013KT 26/17 A2997 RMK A01 T02620174  RH  059%=      5-min Rain = 0
KTA1 201358Z 17013KT 26/17 A2997 RMK A01 T02610174  RH  059%=      5-min Rain = 0
KTA1 201359Z 17011KT 26/18 A2997 RMK A01 T02610175  RH  059%=      5-min Rain = 0
KTA1 201400Z 18008KT 26/18 A2997 RMK A01 T02620175  RH  059%=      5-min Rain = 0
KTA1 201401Z 17010KT 26/18 A2997 RMK A01 T02630176  RH  059%=      5-min Rain = 0
KTA1 201402Z 18014KT 26/18 A2997 RMK A01 T02640175  RH  058%=      5-min Rain = 0
KTA1 201403Z 18012KT 26/17 A2997 RMK A01 T02640174  RH  058%=      5-min Rain = 0
KTA1 201404Z 19013KT 26/17 A2997 RMK A01 T02630174  RH  058%=      5-min Rain = 0
KTA1 201405Z 18015KT 26/17 A2997 RMK A01 T02640174  RH  058%=      5-min Rain = 0
KTA1 201406Z 18013KT 26/17 A2997 RMK A01 T02630174  RH  058%=      5-min Rain = 0
KTA1 201407Z 18012KT 26/17 A2997 RMK A01 T02630174  RH  058%=      5-min Rain = 0
KTA1 201408Z 17013KT 26/17 A2997 RMK A01 T02630174  RH  058%=      5-min Rain = 0
KTA1 201409Z 17013KT 26/17 A2997 RMK A01 T02630174  RH  058%=      5-min Rain = 0
KTA1 201410Z 18011KT 26/17 A2997 RMK A01 T02630174  RH  058%=      5-min Rain = 0
KTA1 201411Z 18013KT 26/17 A2997 RMK A01 T02640174  RH  058%=      5-min Rain = 0
KTA1 201412Z 18013KT 26/17 A2997 RMK A01 T02640174  RH  058%=      5-min Rain = 0
KTA1 201413Z 18012KT 26/18 A2997 RMK A01 T02640175  RH  058%=      5-min Rain = 0
KTA1 201414Z 17013KT 26/18 A2997 RMK A01 T02640175  RH  058%=      5-min Rain = 0
KTA1 201415Z 17012KT 27/18 A2997 RMK A01 T02660175  RH  057%=      5-min Rain = 0
KTA1 201416Z 18011KT 27/18 A2997 RMK A01 T02660175  RH  058%=      5-min Rain = 0
KTA1 201417Z 18014KT 27/17 A2997 RMK A01 T02660174  RH  057%=      5-min Rain = 0
KTA1 201418Z 18012G17KT 27/17 A2997 RMK A01 T02660174  RH  057%=      5-min Rain = 0
KTA1 201419Z 17012KT 27/18 A2997 RMK A01 T02670175  RH  057%=      5-min Rain = 0
KTA1 201420Z 17014KT 27/17 A2997 RMK A01 T02670174  RH  057%=      5-min Rain = 0
KTA1 201421Z 17013KT 27/18 A2997 RMK A01 T02670175  RH  057%=      5-min Rain = 0
KTA1 201422Z 17013KT 27/18 A2997 RMK A01 T02680175  RH  057%=      5-min Rain = 0
KTA1 201423Z 17011KT 27/18 A2997 RMK A01 T02680175  RH  057%=      5-min Rain = 0
KTA1 201424Z 17014KT 27/18 A2997 RMK A01 T02680175  RH  056%=      5-min Rain = 0
KTA1 201425Z 17014KT 27/18 A2997 RMK A01 T02690175  RH  056%=      5-min Rain = 0
KTA1 201426Z 17014KT 27/17 A2997 RMK A01 T02680174  RH  056%=      5-min Rain = 0
KTA1 201427Z 17012KT 27/18 A2997 RMK A01 T02690175  RH  056%=      5-min Rain = 0
KTA1 201428Z 18013KT 27/18 A2997 RMK A01 T02690175  RH  056%=      5-min Rain = 0
KTA1 201429Z 17014KT 27/18 A2997 RMK A01 T02710175  RH  056%=      5-min Rain = 0
KTA1 201430Z 17012KT 27/18 A2997 RMK A01 T02700175  RH  056%=      5-min Rain = 0
KTA1 201431Z 17012G17KT 27/18 A2997 RMK A01 T02710175  RH  056%=      5-min Rain = 0
KTA1 201432Z 17013KT 27/18 A2997 RMK A01 T02720176  RH  056%=      5-min Rain = 0
KTA1 201433Z 17010KT 27/18 A2997 RMK A01 T02730177  RH  056%=      5-min Rain = 0
KTA1 201434Z 18011KT 27/18 A2997 RMK A01 T02740177  RH  055%=      5-min Rain = 0
KTA1 201435Z 17013KT 28/18 A2997 RMK A01 T02750176  RH  055%=      5-min Rain = 0
KTA1 201436Z 18013KT 28/18 A2997 RMK A01 T02750175  RH  054%=      5-min Rain = 0
KTA1 201437Z 18012KT 27/18 A2997 RMK A01 T02730175  RH  055%=      5-min Rain = 0
KTA1 201438Z 17015KT 27/18 A2997 RMK A01 T02730175  RH  055%=      5-min Rain = 0
KTA1 201439Z 16014KT 27/18 A2997 RMK A01 T02730175  RH  055%=      5-min Rain = 0
KTA1 201440Z 17014KT 27/18 A2997 RMK A01 T02720176  RH  056%=      5-min Rain = 0
KTA1 201441Z 17012G17KT 27/18 A2997 RMK A01 T02720176  RH  056%=      5-min Rain = 0
KTA1 201442Z 17013KT 27/18 A2997 RMK A01 T02730176  RH  055%=      5-min Rain = 0
KTA1 201443Z 16014KT 27/18 A2997 RMK A01 T02740176  RH  055%=      5-min Rain = 0
KTA1 201444Z 16014KT 27/18 A2997 RMK A01 T02740176  RH  055%=      5-min Rain = 0
KTA1 201445Z 17013KT 28/18 A2997 RMK A01 T02750176  RH  055%=      5-min Rain = 0
KTA1 201446Z 17015KT 28/18 A2997 RMK A01 T02750175  RH  054%=      5-min Rain = 0
KTA1 201447Z 16013KT 28/18 A2997 RMK A01 T02760176  RH  054%=      5-min Rain = 0
KTA1 201448Z 17012KT 28/18 A2997 RMK A01 T02760176  RH  054%=      5-min Rain = 0
KTA1 201449Z 17015KT 28/18 A2997 RMK A01 T02760175  RH  054%=      5-min Rain = 0
KTA1 201450Z 18014KT 28/18 A2997 RMK A01 T02760175  RH  054%=      5-min Rain = 0
KTA1 201451Z 17013KT 28/18 A2997 RMK A01 T02760175  RH  054%=      5-min Rain = 0
KTA1 201452Z 17013KT 28/18 A2997 RMK A01 T02770175  RH  054%=      5-min Rain = 0
KTA1 201453Z 18012KT 28/18 A2997 RMK A01 T02780175  RH  053%=      5-min Rain = 0
KTA1 201454Z 18013KT 28/18 A2997 RMK A01 T02780175  RH  054%=      5-min Rain = 0
KTA1 201455Z 17015KT 28/18 A2997 RMK A01 T02780176  RH  054%=      5-min Rain = 0
KTA1 201456Z 18013KT 28/18 A2997 RMK A01 T02790175  RH  053%=      5-min Rain = 0
KTA1 201457Z 18013KT 28/18 A2997 RMK A01 T02790175  RH  053%=      5-min Rain = 0
KTA1 201458Z 17010KT 28/18 A2997 RMK A01 T02790176  RH  054%=      5-min Rain = 0
KTA1 201459Z 18013G18KT 28/18 A2997 RMK A01 T02810177  RH  053%=      5-min Rain = 0
KTA1 201500Z 19015KT 28/18 A2997 RMK A01 T02820176  RH  052%=      5-min Rain = 0
KTA1 201501Z 18013KT 28/18 A2997 RMK A01 T02820176  RH  053%=      5-min Rain = 0
KTA1 201502Z 18013KT 28/18 A2997 RMK A01 T02810175  RH  053%=      5-min Rain = 0
KTA1 201503Z 17014KT 28/18 A2997 RMK A01 T02820175  RH  052%=      5-min Rain = 0
KTA1 201504Z 16011KT 28/18 A2997 RMK A01 T02810175  RH  053%=      5-min Rain = 0
KTA1 201505Z 18013KT 28/18 A2997 RMK A01 T02830176  RH  052%=      5-min Rain = 0
KTA1 201506Z 17013KT 28/18 A2997 RMK A01 T02840176  RH  052%=      5-min Rain = 0
KTA1 201507Z 17013KT 28/18 A2997 RMK A01 T02840176  RH  052%=      5-min Rain = 0
KTA1 201508Z 17012KT 28/18 A2997 RMK A01 T02840176  RH  052%=      5-min Rain = 0
KTA1 201509Z 17014KT 28/18 A2997 RMK A01 T02840176  RH  052%=      5-min Rain = 0
KTA1 201510Z 17015KT 29/18 A2997 RMK A01 T02850177  RH  052%=      5-min Rain = 0
KTA1 201511Z 16015KT 29/18 A2997 RMK A01 T02850177  RH  052%=      5-min Rain = 0
KTA1 201512Z 17011KT 29/18 A2997 RMK A01 T02850177  RH  052%=      5-min Rain = 0
KTA1 201513Z 16013KT 29/18 A2997 RMK A01 T02850177  RH  052%=      5-min Rain = 0
KTA1 201514Z 16014KT 29/18 A2997 RMK A01 T02860177  RH  052%=      5-min Rain = 0
KTA1 201515Z 17014KT 29/18 A2997 RMK A01 T02860178  RH  052%=      5-min Rain = 0
KTA1 201516Z 17013KT 29/18 A2997 RMK A01 T02860176  RH  051%=      5-min Rain = 0
KTA1 201517Z 19014KT 29/18 A2997 RMK A01 T02860176  RH  051%=      5-min Rain = 0
KTA1 201518Z 19011KT 29/18 A2997 RMK A01 T02860176  RH  051%=      5-min Rain = 0
KTA1 201519Z 18013KT 29/18 A2997 RMK A01 T02870177  RH  051%=      5-min Rain = 0
KTA1 201520Z 17011KT 29/18 A2997 RMK A01 T02890177  RH  051%=      5-min Rain = 0
KTA1 201521Z 17013KT 29/18 A2997 RMK A01 T02910177  RH  050%=      5-min Rain = 0
KTA1 201522Z 18014KT 29/18 A2997 RMK A01 T02920177  RH  050%=      5-min Rain = 0
KTA1 201523Z 17012KT 29/18 A2997 RMK A01 T02920177  RH  050%=      5-min Rain = 0
KTA1 201524Z 16009KT 29/18 A2997 RMK A01 T02910177  RH  050%=      5-min Rain = 0
KTA1 201525Z 17012KT 29/18 A2996 RMK A01 T02910178  RH  051%=      5-min Rain = 0
KTA1 201526Z 16013KT 29/18 A2996 RMK A01 T02910177  RH  050%=      5-min Rain = 0
KTA1 201527Z 17013KT 29/18 A2996 RMK A01 T02910176  RH  050%=      5-min Rain = 0
KTA1 201528Z 17013KT 29/18 A2996 RMK A01 T02910177  RH  050%=      5-min Rain = 0
KTA1 201529Z 17014KT 29/18 A2996 RMK A01 T02910175  RH  050%=      5-min Rain = 0
KTA1 201530Z 16010KT 29/18 A2996 RMK A01 T02920177  RH  050%=      5-min Rain = 0
KTA1 201531Z 17014KT 29/18 A2996 RMK A01 T02930177  RH  050%=      5-min Rain = 0
KTA1 201532Z 18013KT 29/18 A2996 RMK A01 T02940176  RH  049%=      5-min Rain = 0
KTA1 201533Z 18014KT 29/18 A2996 RMK A01 T02940176  RH  049%=      5-min Rain = 0
KTA1 201534Z 17013KT 29/18 A2996 RMK A01 T02940177  RH  049%=      5-min Rain = 0
KTA1 201535Z 17012KT 29/18 A2996 RMK A01 T02940177  RH  049%=      5-min Rain = 0
KTA1 201536Z 18012KT 30/18 A2996 RMK A01 T02960175  RH  048%=      5-min Rain = 0
KTA1 201537Z 18010KT 30/18 A2996 RMK A01 T02960176  RH  049%=      5-min Rain = 0
KTA1 201538Z 17013KT 30/18 A2996 RMK A01 T02980178  RH  048%=      5-min Rain = 0
KTA1 201539Z 17010KT 30/18 A2996 RMK A01 T02970177  RH  048%=      5-min Rain = 0
KTA1 201540Z 16012KT 30/18 A2996 RMK A01 T02970178  RH  049%=      5-min Rain = 0
KTA1 201541Z 17014KT 30/18 A2996 RMK A01 T02960177  RH  049%=      5-min Rain = 0
KTA1 201542Z 18013G19KT 30/18 A2996 RMK A01 T02960176  RH  049%=      5-min Rain = 0
KTA1 201543Z 17012KT 30/18 A2996 RMK A01 T02970177  RH  048%=      5-min Rain = 0
KTA1 201544Z 18014KT 30/18 A2996 RMK A01 T02970177  RH  048%=      5-min Rain = 0
KTA1 201545Z 18010G15KT 30/18 A2996 RMK A01 T02970176  RH  048%=      5-min Rain = 0
KTA1 201546Z 17012KT 30/18 A2996 RMK A01 T03000178  RH  048%=      5-min Rain = 0
KTA1 201547Z 17012KT 30/18 A2996 RMK A01 T03010177  RH  048%=      5-min Rain = 0
KTA1 201548Z 17014KT 30/18 A2996 RMK A01 T03000177  RH  048%=      5-min Rain = 0
KTA1 201549Z 17014KT 30/18 A2996 RMK A01 T03000175  RH  047%=      5-min Rain = 0
KTA1 201550Z 18013G18KT 30/18 A2996 RMK A01 T03010176  RH  047%=      5-min Rain = 0
KTA1 201551Z 18009KT 30/18 A2996 RMK A01 T03020177  RH  047%=      5-min Rain = 0
KTA1 201552Z 18010KT 30/18 A2996 RMK A01 T03030176  RH  047%=      5-min Rain = 0
KTA1 201553Z 16013KT 30/18 A2996 RMK A01 T03030178  RH  047%=      5-min Rain = 0
KTA1 201554Z 16011KT 30/18 A2996 RMK A01 T03020179  RH  048%=      5-min Rain = 0
KTA1 201555Z 17012KT 30/18 A2996 RMK A01 T03020178  RH  048%=      5-min Rain = 0
KTA1 201556Z 17013KT 30/18 A2996 RMK A01 T03020178  RH  048%=      5-min Rain = 0
KTA1 201557Z 17011KT 30/18 A2996 RMK A01 T03030178  RH  047%=      5-min Rain = 0
KTA1 201558Z 19010KT 30/18 A2996 RMK A01 T03030176  RH  047%=      5-min Rain = 0
KTA1 201559Z 19011KT 31/18 A2996 RMK A01 T03050177  RH  046%=      5-min Rain = 0
KTA1 201600Z 19013KT 31/18 A2996 RMK A01 T03060178  RH  046%=      5-min Rain = 0
KTA1 201601Z 19013KT 31/18 A2996 RMK A01 T03070176  RH  045%=      5-min Rain = 0
KTA1 201602Z 20012KT 31/18 A2996 RMK A01 T03060175  RH  046%=      5-min Rain = 0
KTA1 201603Z 18011KT 30/18 A2996 RMK A01 T03040176  RH  046%=      5-min Rain = 0
KTA1 201604Z 16013KT 30/18 A2996 RMK A01 T03040178  RH  047%=      5-min Rain = 0
KTA1 201605Z 17013KT 31/18 A2996 RMK A01 T03050179  RH  047%=      5-min Rain = 0
KTA1 201606Z 19009KT 31/18 A2996 RMK A01 T03070178  RH  046%=      5-min Rain = 0
KTA1 201607Z 19011KT 31/18 A2996 RMK A01 T03080177  RH  045%=      5-min Rain = 0
KTA1 201608Z 17010G15KT 31/18 A2996 RMK A01 T03090179  RH  046%=      5-min Rain = 0
KTA1 201609Z 19011KT 31/18 A2996 RMK A01 T03120180  RH  045%=      5-min Rain = 0
KTA1 201610Z 19011KT 31/18 A2996 RMK A01 T03140178  RH  044%=      5-min Rain = 0
KTA1 201611Z 18012KT 32/18 A2996 RMK A01 T03150178  RH  044%=      5-min Rain = 0
KTA1 201612Z 17012KT 31/18 A2996 RMK A01 T03140179  RH  045%=      5-min Rain = 0
KTA1 201613Z 17016KT 31/18 A2996 RMK A01 T03130178  RH  045%=      5-min Rain = 0
KTA1 201614Z 18012KT 31/18 A2996 RMK A01 T03120175  RH  044%=      5-min Rain = 0
KTA1 201615Z 18012KT 31/18 A2996 RMK A01 T03110175  RH  044%=      5-min Rain = 0
KTA1 201616Z 17012KT 31/18 A2996 RMK A01 T03120176  RH  044%=      5-min Rain = 0
KTA1 201617Z 17013KT 31/18 A2996 RMK A01 T03120177  RH  044%=      5-min Rain = 0
KTA1 201618Z 17014KT 31/18 A2996 RMK A01 T03140176  RH  044%=      5-min Rain = 0
KTA1 201619Z 17013KT 31/18 A2996 RMK A01 T03140176  RH  044%=      5-min Rain = 0
KTA1 201620Z 17011KT 31/18 A2996 RMK A01 T03140176  RH  044%=      5-min Rain = 0
KTA1 201621Z 18013KT 31/18 A2996 RMK A01 T03130176  RH  044%=      5-min Rain = 0
KTA1 201622Z 18014KT 31/18 A2996 RMK A01 T03130177  RH  044%=      5-min Rain = 0
KTA1 201623Z 18012KT 31/18 A2996 RMK A01 T03130176  RH  044%=      5-min Rain = 0
KTA1 201624Z 17012KT 31/18 A2996 RMK A01 T03120176  RH  044%=      5-min Rain = 0
KTA1 201625Z 16010KT 31/18 A2996 RMK A01 T03120177  RH  045%=      5-min Rain = 0
KTA1 201626Z 17010KT 31/18 A2996 RMK A01 T03130177  RH  044%=      5-min Rain = 0
KTA1 201627Z 18012KT 32/18 A2996 RMK A01 T03150176  RH  044%=      5-min Rain = 0
KTA1 201628Z 17013KT 32/18 A2996 RMK A01 T03160176  RH  043%=      5-min Rain = 0
KTA1 201629Z 15012KT 32/18 A2996 RMK A01 T03170179  RH  044%=      5-min Rain = 0
KTA1 201630Z 15012KT 32/18 A2996 RMK A01 T03180179  RH  044%=      5-min Rain = 0
KTA1 201631Z 17009KT 32/18 A2996 RMK A01 T03190182  RH  044%=      5-min Rain = 0
KTA1 201632Z 18011KT 32/18 A2996 RMK A01 T03220177  RH  042%=      5-min Rain = 0
KTA1 201633Z 18013KT 32/18 A2996 RMK A01 T03220178  RH  042%=      5-min Rain = 0
KTA1 201634Z 18014KT 32/18 A2996 RMK A01 T03210177  RH  042%=      5-min Rain = 0
KTA1 201635Z 17013KT 32/18 A2996 RMK A01 T03200176  RH  042%=      5-min Rain = 0
KTA1 201636Z 17011KT 32/18 A2996 RMK A01 T03200177  RH  043%=      5-min Rain = 0
KTA1 201637Z 17007G12KT 32/18 A2996 RMK A01 T03200177  RH  043%=      5-min Rain = 0
KTA1 201638Z 17013KT 32/18 A2996 RMK A01 T03220177  RH  042%=      5-min Rain = 0
KTA1 201639Z 19014KT 32/18 A2996 RMK A01 T03230177  RH  042%=      5-min Rain = 0
KTA1 201640Z 18010KT 32/18 A2996 RMK A01 T03210177  RH  042%=      5-min Rain = 0
KTA1 201641Z 18014KT 32/18 A2996 RMK A01 T03220176  RH  042%=      5-min Rain = 0
KTA1 201642Z 17010G18KT 32/18 A2996 RMK A01 T03210175  RH  042%=      5-min Rain = 0
KTA1 201643Z 17014KT 32/18 A2996 RMK A01 T03200177  RH  043%=      5-min Rain = 0
KTA1 201644Z 15009KT 32/18 A2996 RMK A01 T03210179  RH  043%=      5-min Rain = 0
KTA1 201645Z 15012KT 32/18 A2995 RMK A01 T03230178  RH  042%=      5-min Rain = 0
KTA1 201646Z 16009KT 32/18 A2995 RMK A01 T03240180  RH  042%=      5-min Rain = 0
KTA1 201647Z 16012KT 33/18 A2995 RMK A01 T03250180  RH  042%=      5-min Rain = 0
KTA1 201648Z 17013KT 33/18 A2995 RMK A01 T03260178  RH  042%=      5-min Rain = 0
KTA1 201649Z 17011KT 33/18 A2995 RMK A01 T03260176  RH  041%=      5-min Rain = 0
KTA1 201650Z 17013KT 33/18 A2995 RMK A01 T03270176  RH  041%=      5-min Rain = 0
KTA1 201651Z 18011KT 33/18 A2995 RMK A01 T03260176  RH  041%=      5-min Rain = 0
KTA1 201652Z 17010KT 33/18 A2995 RMK A01 T03270176  RH  041%=      5-min Rain = 0
KTA1 201653Z 18014KT 33/18 A2995 RMK A01 T03280177  RH  041%=      5-min Rain = 0
KTA1 201654Z 18011KT 33/18 A2995 RMK A01 T03290177  RH  040%=      5-min Rain = 0
KTA1 201655Z 18013KT 33/18 A2995 RMK A01 T03290176  RH  040%=      5-min Rain = 0
KTA1 201656Z 18014KT 33/18 A2995 RMK A01 T03290176  RH  040%=      5-min Rain = 0
KTA1 201657Z 17013KT 33/18 A2995 RMK A01 T03280175  RH  040%=      5-min Rain = 0
KTA1 201658Z 19013KT 33/18 A2995 RMK A01 T03270176  RH  041%=      5-min Rain = 0
KTA1 201659Z 19015G20KT 33/17 A2995 RMK A01 T03280173  RH  040%=      5-min Rain = 0
KTA1 201700Z 17014KT 33/18 A2995 RMK A01 T03260175  RH  041%=      5-min Rain = 0
KTA1 201701Z 16012KT 32/18 A2995 RMK A01 T03240177  RH  042%=      5-min Rain = 0
KTA1 201702Z 18015KT 32/18 A2995 RMK A01 T03240176  RH  041%=      5-min Rain = 0
KTA1 201703Z 18011KT 33/18 A2995 RMK A01 T03250176  RH  041%=      5-min Rain = 0
KTA1 201704Z 18010KT 33/18 A2995 RMK A01 T03270175  RH  040%=      5-min Rain = 0
KTA1 201705Z 18010KT 33/18 A2995 RMK A01 T03280176  RH  041%=      5-min Rain = 0
KTA1 201706Z 17014KT 33/18 A2995 RMK A01 T03290176  RH  040%=      5-min Rain = 0
KTA1 201707Z 17011KT 33/18 A2995 RMK A01 T03300175  RH  040%=      5-min Rain = 0
KTA1 201708Z 19013KT 33/18 A2995 RMK A01 T03310177  RH  040%=      5-min Rain = 0
KTA1 201709Z 18013KT 33/18 A2995 RMK A01 T03300176  RH  040%=      5-min Rain = 0
KTA1 201710Z 17011KT 33/18 A2995 RMK A01 T03280175  RH  040%=      5-min Rain = 0
KTA1 201711Z 16011KT 33/17 A2995 RMK A01 T03290174  RH  040%=      5-min Rain = 0
KTA1 201712Z 16011G16KT 33/18 A2995 RMK A01 T03320175  RH  039%=      5-min Rain = 0
KTA1 201713Z 18014KT 33/18 A2995 RMK A01 T03310177  RH  040%=      5-min Rain = 0
KTA1 201714Z 16012KT 33/18 A2995 RMK A01 T03320178  RH  040%=      5-min Rain = 0
KTA1 201715Z 16013KT 33/18 A2995 RMK A01 T03330180  RH  040%=      5-min Rain = 0
KTA1 201716Z 16012KT 34/18 A2995 RMK A01 T03350180  RH  040%=      5-min Rain = 0
KTA1 201717Z 17012KT 34/18 A2995 RMK A01 T03360177  RH  039%=      5-min Rain = 0
KTA1 201718Z 18012KT 34/18 A2995 RMK A01 T03350177  RH  039%=      5-min Rain = 0
KTA1 201719Z 19013KT 34/18 A2995 RMK A01 T03350176  RH  039%=      5-min Rain = 0
KTA1 201720Z 18014G19KT 33/17 A2995 RMK A01 T03340174  RH  039%=      5-min Rain = 0
KTA1 201721Z 18012KT 33/17 A2995 RMK A01 T03340171  RH  038%=      5-min Rain = 0
KTA1 201722Z 18010KT 34/17 A2995 RMK A01 T03350171  RH  038%=      5-min Rain = 0
KTA1 201723Z 18011KT 34/17 A2995 RMK A01 T03350173  RH  038%=      5-min Rain = 0
KTA1 201724Z 17011G16KT 34/18 A2995 RMK A01 T03370175  RH  038%=      5-min Rain = 0
KTA1 201725Z 18012KT 34/18 A2995 RMK A01 T03380175  RH  038%=      5-min Rain = 0
KTA1 201726Z 18011KT 33/18 A2995 RMK A01 T03330175  RH  039%=      5-min Rain = 0
KTA1 201727Z 17012KT 33/18 A2995 RMK A01 T03320175  RH  039%=      5-min Rain = 0
KTA1 201728Z 16011KT 33/18 A2995 RMK A01 T03330176  RH  039%=      5-min Rain = 0
KTA1 201729Z 18013KT 33/18 A2995 RMK A01 T03340178  RH  039%=      5-min Rain = 0
KTA1 201730Z 19013KT 34/18 A2995 RMK A01 T03380179  RH  039%=      5-min Rain = 0
KTA1 201731Z 17012KT 34/18 A2995 RMK A01 T03390179  RH  039%=      5-min Rain = 0
KTA1 201732Z 17012KT 34/18 A2995 RMK A01 T03380177  RH  038%=      5-min Rain = 0
KTA1 201733Z 17014KT 34/18 A2995 RMK A01 T03370178  RH  039%=      5-min Rain = 0
KTA1 201734Z 17011KT 34/18 A2995 RMK A01 T03370178  RH  039%=      5-min Rain = 0
KTA1 201735Z 18010KT 34/18 A2995 RMK A01 T03380178  RH  039%=      5-min Rain = 0
KTA1 201736Z 17010KT 34/18 A2995 RMK A01 T03390178  RH  038%=      5-min Rain = 0
KTA1 201737Z 18012KT 34/18 A2995 RMK A01 T03410178  RH  038%=      5-min Rain = 0
KTA1 201738Z 20012KT 34/18 A2995 RMK A01 T03430176  RH  037%=      5-min Rain = 0
KTA1 201739Z 20012KT 34/17 A2995 RMK A01 T03420174  RH  037%=      5-min Rain = 0
KTA1 201740Z 18009KT 34/17 A2995 RMK A01 T03390173  RH  037%=      5-min Rain = 0
KTA1 201741Z 16011G16KT 34/17 A2995 RMK A01 T03380174  RH  038%=      5-min Rain = 0
KTA1 201742Z 16011KT 34/18 A2995 RMK A01 T03400178  RH  038%=      5-min Rain = 0
KTA1 201743Z 16011KT 34/18 A2995 RMK A01 T03420177  RH  038%=      5-min Rain = 0
KTA1 201744Z 17009KT 34/18 A2995 RMK A01 T03420177  RH  038%=      5-min Rain = 0
KTA1 201745Z 19013KT 34/17 A2995 RMK A01 T03420174  RH  037%=      5-min Rain = 0
KTA1 201746Z 18010G15KT 34/17 A2995 RMK A01 T03410173  RH  037%=      5-min Rain = 0
KTA1 201747Z 17012G17KT 34/17 A2995 RMK A01 T03410174  RH  037%=      5-min Rain = 0
KTA1 201748Z 16012KT 34/17 A2995 RMK A01 T03410173  RH  037%=      5-min Rain = 0
KTA1 201749Z 16009KT 34/17 A2995 RMK A01 T03390172  RH  037%=      5-min Rain = 0
KTA1 201750Z 16008KT 34/17 A2995 RMK A01 T03400174  RH  037%=      5-min Rain = 0
KTA1 201751Z 18010KT 34/18 A2995 RMK A01 T03440176  RH  037%=      5-min Rain = 0
KTA1 201752Z 19010KT 35/17 A2995 RMK A01 T03460174  RH  036%=      5-min Rain = 0
KTA1 201753Z 18014KT 35/17 A2995 RMK A01 T03460173  RH  036%=      5-min Rain = 0
KTA1 201754Z 19013KT 35/17 A2995 RMK A01 T03460174  RH  036%=      5-min Rain = 0
KTA1 201755Z 18013KT 35/18 A2995 RMK A01 T03460176  RH  036%=      5-min Rain = 0
KTA1 201756Z 17010KT 35/18 A2995 RMK A01 T03450175  RH  036%=      5-min Rain = 0
KTA1 201757Z 16011G17KT 35/18 A2995 RMK A01 T03450175  RH  037%=      5-min Rain = 0
KTA1 201758Z 15013KT 35/18 A2995 RMK A01 T03470177  RH  037%=      5-min Rain = 0
KTA1 201759Z 16014KT 35/18 A2995 RMK A01 T03480176  RH  036%=      5-min Rain = 0
KTA1 201800Z 16012KT 35/18 A2995 RMK A01 T03490178  RH  036%=      5-min Rain = 0
KTA1 201801Z 15011KT 35/18 A2995 RMK A01 T03500178  RH  036%=      5-min Rain = 0
KTA1 201802Z 15013KT 35/18 A2994 RMK A01 T03510178  RH  036%=      5-min Rain = 0
KTA1 201803Z 17010G15KT 35/18 A2995 RMK A01 T03520176  RH  035%=      5-min Rain = 0
KTA1 201804Z 19012KT 35/17 A2995 RMK A01 T03530174  RH  035%=      5-min Rain = 0
KTA1 201805Z 18013KT 35/18 A2995 RMK A01 T03540175  RH  035%=      5-min Rain = 0
KTA1 201806Z 16011KT 35/18 A2995 RMK A01 T03530176  RH  035%=      5-min Rain = 0
KTA1 201807Z 16012KT 35/18 A2995 RMK A01 T03530177  RH  035%=      5-min Rain = 0
KTA1 201808Z 15010KT 35/18 A2994 RMK A01 T03510176  RH  036%=      5-min Rain = 0
KTA1 201809Z 17013KT 35/18 A2994 RMK A01 T03500176  RH  036%=      5-min Rain = 0
KTA1 201810Z 18011KT 35/17 A2995 RMK A01 T03510174  RH  035%=      5-min Rain = 0
KTA1 201811Z 20011KT 35/17 A2994 RMK A01 T03540172  RH  034%=      5-min Rain = 0
KTA1 201812Z 19012KT 35/17 A2994 RMK A01 T03520171  RH  034%=      5-min Rain = 0
KTA1 201813Z 19008G13KT 35/17 A2994 RMK A01 T03520170  RH  034%=      5-min Rain = 0
KTA1 201814Z 18008KT 35/17 A2994 RMK A01 T03490170  RH  035%=      5-min Rain = 0
KTA1 201815Z 18010KT 35/17 A2994 RMK A01 T03510173  RH  035%=      5-min Rain = 0
KTA1 201816Z 16010KT 35/17 A2994 RMK A01 T03530172  RH  034%=      5-min Rain = 0
KTA1 201817Z 16010KT 36/17 A2994 RMK A01 T03550172  RH  034%=      5-min Rain = 0
KTA1 201818Z 16010KT 35/17 A2994 RMK A01 T03540171  RH  034%=      5-min Rain = 0
KTA1 201819Z 16009G14KT 35/17 A2994 RMK A01 T03540173  RH  034%=      5-min Rain = 0
KTA1 201820Z 17011KT 36/17 A2994 RMK A01 T03560174  RH  034%=      5-min Rain = 0
KTA1 201821Z 16012KT 36/18 A2994 RMK A01 T03570175  RH  034%=      5-min Rain = 0
KTA1 201822Z 16008KT 36/17 A2994 RMK A01 T03560174  RH  034%=      5-min Rain = 0
KTA1 201823Z 18011KT 36/17 A2994 RMK A01 T03570174  RH  034%=      5-min Rain = 0
KTA1 201824Z 20011KT 36/17 A2994 RMK A01 T03570172  RH  033%=      5-min Rain = 0
KTA1 201825Z 20008KT 36/17 A2994 RMK A01 T03580173  RH  034%=      5-min Rain = 0
KTA1 201826Z 18011KT 36/17 A2994 RMK A01 T03610170  RH  032%=      5-min Rain = 0
KTA1 201827Z 17009KT 36/17 A2994 RMK A01 T03610167  RH  032%=      5-min Rain = 0
KTA1 201828Z 18008KT 36/17 A2994 RMK A01 T03600170  RH  032%=      5-min Rain = 0
KTA1 201829Z 16008G13KT 36/17 A2994 RMK A01 T03600172  RH  033%=      5-min Rain = 0
KTA1 201830Z 15011KT 36/17 A2994 RMK A01 T03600171  RH  033%=      5-min Rain = 0
KTA1 201831Z 15012KT 36/17 A2994 RMK A01 T03570170  RH  033%=      5-min Rain = 0
KTA1 201832Z 14011KT 36/17 A2994 RMK A01 T03570169  RH  033%=      5-min Rain = 0
KTA1 201833Z 16011G16KT 36/17 A2993 RMK A01 T03610173  RH  033%=      5-min Rain = 0
KTA1 201834Z 16014KT 36/17 A2994 RMK A01 T03630173  RH  033%=      5-min Rain = 0
KTA1 201835Z 17013KT 36/17 A2993 RMK A01 T03590171  RH  033%=      5-min Rain = 0
KTA1 201836Z 15013KT 36/17 A2993 RMK A01 T03580172  RH  033%=      5-min Rain = 0
KTA1 201837Z 16011G18KT 36/17 A2993 RMK A01 T03610172  RH  033%=      5-min Rain = 0
KTA1 201838Z 17014KT 36/17 A2993 RMK A01 T03600173  RH  033%=      5-min Rain = 0
KTA1 201839Z 17010KT 36/17 A2993 RMK A01 T03590173  RH  033%=      5-min Rain = 0
KTA1 201840Z 18012KT 36/17 A2993 RMK A01 T03640173  RH  032%=      5-min Rain = 0
KTA1 201841Z 17011KT 37/17 A2993 RMK A01 T03650170  RH  032%=      5-min Rain = 0
KTA1 201842Z 17007KT 36/17 A2993 RMK A01 T03640170  RH  032%=      5-min Rain = 0
KTA1 201843Z 18009KT 36/17 A2993 RMK A01 T03640170  RH  032%=      5-min Rain = 0
KTA1 201844Z 19012KT 36/17 A2993 RMK A01 T03640171  RH  032%=      5-min Rain = 0
KTA1 201845Z 18011KT 36/17 A2993 RMK A01 T03620172  RH  033%=      5-min Rain = 0
KTA1 201846Z 16009KT 36/17 A2993 RMK A01 T03610172  RH  033%=      5-min Rain = 0
KTA1 201847Z 15011KT 36/17 A2993 RMK A01 T03620174  RH  033%=      5-min Rain = 0
KTA1 201848Z 14012KT 37/17 A2993 RMK A01 T03650174  RH  033%=      5-min Rain = 0
KTA1 201849Z 17011G16KT 37/18 A2993 RMK A01 T03660175  RH  032%=      5-min Rain = 0
KTA1 201850Z 16008KT 37/17 A2993 RMK A01 T03690174  RH  032%=      5-min Rain = 0
KTA1 201851Z 16010KT 37/18 A2993 RMK A01 T03690175  RH  032%=      5-min Rain = 0
KTA1 201852Z 18015KT 37/17 A2993 RMK A01 T03680172  RH  031%=      5-min Rain = 0
KTA1 201853Z 18012KT 37/17 A2993 RMK A01 T03660171  RH  032%=      5-min Rain = 0
KTA1 201854Z 16008KT 36/17 A2993 RMK A01 T03630169  RH  032%=      5-min Rain = 0
KTA1 201855Z 16007KT 36/17 A2993 RMK A01 T03620170  RH  032%=      5-min Rain = 0
KTA1 201856Z 16010KT 36/17 A2993 RMK A01 T03640170  RH  032%=      5-min Rain = 0
KTA1 201857Z 16013KT 37/17 A2993 RMK A01 T03660173  RH  032%=      5-min Rain = 0
KTA1 201858Z 17015KT 37/17 A2993 RMK A01 T03690174  RH  032%=      5-min Rain = 0
KTA1 201859Z 17015KT 37/17 A2993 RMK A01 T03680172  RH  032%=      5-min Rain = 0
KTA1 201900Z 17012KT 37/17 A2993 RMK A01 T03660173  RH  032%=      5-min Rain = 0
KTA1 201901Z 16008KT 37/17 A2993 RMK A01 T03650173  RH  032%=      5-min Rain = 0
KTA1 201902Z 15009KT 37/18 A2993 RMK A01 T03670176  RH  033%=      5-min Rain = 0
KTA1 201903Z 18012KT 37/17 A2993 RMK A01 T03710174  RH  031%=      5-min Rain = 0
KTA1 201904Z 19013KT 37/17 A2993 RMK A01 T03710171  RH  031%=      5-min Rain = 0
KTA1 201905Z 20013KT 37/17 A2993 RMK A01 T03710169  RH  030%=      5-min Rain = 0
KTA1 201906Z 20011KT 37/17 A2993 RMK A01 T03690167  RH  030%=      5-min Rain = 0
KTA1 201907Z 19010KT 37/17 A2993 RMK A01 T03680167  RH  031%=      5-min Rain = 0
KTA1 201908Z 19009KT 37/17 A2993 RMK A01 T03670167  RH  031%=      5-min Rain = 0
KTA1 201909Z 19011KT 37/17 A2993 RMK A01 T03690167  RH  030%=      5-min Rain = 0
KTA1 201910Z 20011KT 37/17 A2993 RMK A01 T03710168  RH  030%=      5-min Rain = 0
KTA1 201911Z 20007KT 37/17 A2993 RMK A01 T03700166  RH  030%=      5-min Rain = 0
KTA1 201912Z 17008KT 37/17 A2993 RMK A01 T03700168  RH  030%=      5-min Rain = 0
KTA1 201913Z 15012KT 37/17 A2993 RMK A01 T03700171  RH  031%=      5-min Rain = 0
KTA1 201914Z 15013KT 37/17 A2993 RMK A01 T03710172  RH  031%=      5-min Rain = 0
KTA1 201915Z 15011KT 37/17 A2992 RMK A01 T03710173  RH  031%=      5-min Rain = 0
KTA1 201916Z 17012KT 37/17 A2993 RMK A01 T03730172  RH  031%=      5-min Rain = 0
KTA1 201917Z 18013KT 37/17 A2993 RMK A01 T03730168  RH  030%=      5-min Rain = 0
KTA1 201918Z 19013KT 37/17 A2992 RMK A01 T03710168  RH  030%=      5-min Rain = 0
KTA1 201919Z 18011KT 37/17 A2992 RMK A01 T03690168  RH  031%=      5-min Rain = 0
KTA1 201920Z 17011KT 37/17 A2992 RMK A01 T03710168  RH  030%=      5-min Rain = 0
KTA1 201921Z 17010KT 37/17 A2992 RMK A01 T03730167  RH  030%=      5-min Rain = 0
KTA1 201922Z 18009KT 37/17 A2992 RMK A01 T03710167  RH  030%=      5-min Rain = 0
KTA1 201923Z 16010KT 37/17 A2992 RMK A01 T03710169  RH  031%=      5-min Rain = 0
KTA1 201924Z 18008KT 37/17 A2992 RMK A01 T03720169  RH  030%=      5-min Rain = 0
KTA1 201925Z 16012KT 37/17 A2992 RMK A01 T03730166  RH  030%=      5-min Rain = 0
KTA1 201926Z 15006KT 37/17 A2992 RMK A01 T03710165  RH  030%=      5-min Rain = 0
KTA1 201927Z 16007KT 37/17 A2992 RMK A01 T03700165  RH  030%=      5-min Rain = 0
KTA1 201928Z 17008KT 37/17 A2992 RMK A01 T03690165  RH  030%=      5-min Rain = 0
KTA1 201929Z 17006KT 37/16 A2992 RMK A01 T03710163  RH  029%=      5-min Rain = 0
KTA1 201930Z 18007KT 37/17 A2992 RMK A01 T03710165  RH  030%=      5-min Rain = 0
KTA1 201931Z 19008KT 37/17 A2992 RMK A01 T03720165  RH  029%=      5-min Rain = 0
KTA1 201932Z 16008KT 37/17 A2992 RMK A01 T03710166  RH  030%=      5-min Rain = 0
KTA1 201933Z 16011KT 37/17 A2992 RMK A01 T03710167  RH  030%=      5-min Rain = 0
KTA1 201934Z 16013KT 37/17 A2992 RMK A01 T03730168  RH  030%=      5-min Rain = 0
KTA1 201935Z 16014KT 38/17 A2992 RMK A01 T03750169  RH  030%=      5-min Rain = 0
KTA1 201936Z 16011KT 38/17 A2992 RMK A01 T03750168  RH  030%=      5-min Rain = 0
KTA1 201937Z 18009KT 38/17 A2992 RMK A01 T03750168  RH  030%=      5-min Rain = 0
KTA1 201938Z 17009KT 38/17 A2992 RMK A01 T03760169  RH  030%=      5-min Rain = 0
KTA1 201939Z 16012KT 38/17 A2992 RMK A01 T03770170  RH  030%=      5-min Rain = 0
KTA1 201940Z 16010KT 38/17 A2992 RMK A01 T03760169  RH  030%=      5-min Rain = 0
KTA1 201941Z 17010KT 38/17 A2992 RMK A01 T03760169  RH  030%=      5-min Rain = 0
KTA1 201942Z 18007KT 38/17 A2991 RMK A01 T03770166  RH  029%=      5-min Rain = 0
KTA1 201943Z 15007KT 37/17 A2991 RMK A01 T03740166  RH  029%=      5-min Rain = 0
KTA1 201944Z 16011G16KT 37/17 A2991 RMK A01 T03740167  RH  030%=      5-min Rain = 0
KTA1 201945Z 16011G17KT 38/17 A2991 RMK A01 T03760169  RH  030%=      5-min Rain = 0
KTA1 201946Z 16014KT 38/17 A2991 RMK A01 T03800169  RH  029%=      5-min Rain = 0
KTA1 201947Z 16012KT 38/17 A2991 RMK A01 T03790168  RH  029%=      5-min Rain = 0
KTA1 201948Z 16010KT 38/17 A2991 RMK A01 T03770169  RH  029%=      5-min Rain = 0
KTA1 201949Z 16010KT 38/17 A2991 RMK A01 T03770167  RH  029%=      5-min Rain = 0
KTA1 201950Z 16008G13KT 38/17 A2991 RMK A01 T03780167  RH  029%=      5-min Rain = 0
KTA1 201951Z 18011KT 38/17 A2991 RMK A01 T03780167  RH  029%=      5-min Rain = 0
KTA1 201952Z 16011KT 38/17 A2991 RMK A01 T03760167  RH  029%=      5-min Rain = 0
KTA1 201953Z 15009KT 38/17 A2991 RMK A01 T03750169  RH  030%=      5-min Rain = 0
KTA1 201954Z 14011KT 38/17 A2991 RMK A01 T03780171  RH  030%=      5-min Rain = 0
KTA1 201955Z 15011KT 38/17 A2991 RMK A01 T03800169  RH  029%=      5-min Rain = 0
KTA1 201956Z 15010KT 38/17 A2991 RMK A01 T03800170  RH  029%=      5-min Rain = 0
KTA1 201957Z 13013KT 38/17 A2991 RMK A01 T03810169  RH  029%=      5-min Rain = 0
KTA1 201958Z 10009KT 38/17 A2991 RMK A01 T03780166  RH  029%=      5-min Rain = 0
KTA1 201959Z 12009KT 38/17 A2991 RMK A01 T03750166  RH  029%=      5-min Rain = 0
KTA1 202000Z 13012KT 38/17 A299 RMK A01 T03750168  RH  030%=      5-min Rain = 0
KTA1 202001Z 15011KT 38/17 A2991 RMK A01 T03800170  RH  029%=      5-min Rain = 0
KTA1 202002Z 14011KT 39/17 A2991 RMK A01 T03850168  RH  028%=      5-min Rain = 0
KTA1 202003Z 14009KT 38/17 A299 RMK A01 T03840166  RH  028%=      5-min Rain = 0
KTA1 202004Z 15011KT 38/17 A299 RMK A01 T03820168  RH  028%=      5-min Rain = 0
KTA1 202005Z 14011KT 38/17 A2991 RMK A01 T03820166  RH  028%=      5-min Rain = 0
KTA1 202006Z 16007KT 38/17 A2991 RMK A01 T03810165  RH  028%=      5-min Rain = 0
KTA1 202007Z 15009KT 38/16 A299 RMK A01 T03800164  RH  028%=      5-min Rain = 0
KTA1 202008Z 15009KT 38/17 A299 RMK A01 T03810165  RH  028%=      5-min Rain = 0
KTA1 202009Z 19009KT 39/17 A299 RMK A01 T03860165  RH  027%=      5-min Rain = 0
KTA1 202010Z 18009KT 39/16 A299 RMK A01 T03860164  RH  027%=      5-min Rain = 0
KTA1 202011Z 17009KT 38/16 A299 RMK A01 T03830164  RH  028%=      5-min Rain = 0
KTA1 202012Z 15011KT 38/16 A299 RMK A01 T03820164  RH  028%=      5-min Rain = 0
KTA1 202013Z 15010KT 38/16 A299 RMK A01 T03830163  RH  028%=      5-min Rain = 0
KTA1 202014Z 15013KT 38/16 A299 RMK A01 T03810162  RH  028%=      5-min Rain = 0
KTA1 202015Z 16011KT 38/16 A299 RMK A01 T03800164  RH  028%=      5-min Rain = 0
KTA1 202016Z 18010KT 38/16 A299 RMK A01 T03840162  RH  027%=      5-min Rain = 0
KTA1 202017Z 18009KT 38/16 A299 RMK A01 T03840162  RH  027%=      5-min Rain = 0
KTA1 202018Z 16012KT 38/16 A299 RMK A01 T03830160  RH  027%=      5-min Rain = 0
KTA1 202019Z 17008G14KT 38/16 A299 RMK A01 T03810161  RH  027%=      5-min Rain = 0
KTA1 202020Z 19009KT 38/16 A299 RMK A01 T03800159  RH  027%=      5-min Rain = 0
KTA1 202021Z 17013KT 38/16 A299 RMK A01 T03780160  RH  028%=      5-min Rain = 0
KTA1 202022Z 15011KT 38/16 A299 RMK A01 T03820162  RH  027%=      5-min Rain = 0
KTA1 202023Z 14010KT 39/16 A299 RMK A01 T03850161  RH  027%=      5-min Rain = 0
KTA1 202024Z 15011KT 38/16 A299 RMK A01 T03840161  RH  027%=      5-min Rain = 0
KTA1 202025Z 18011KT 38/16 A299 RMK A01 T03840161  RH  027%=      5-min Rain = 0
KTA1 202026Z 18012KT 39/16 A299 RMK A01 T03850161  RH  027%=      5-min Rain = 0
KTA1 202027Z 17010KT 38/16 A299 RMK A01 T03820162  RH  027%=      5-min Rain = 0
KTA1 202028Z 18010KT 38/16 A299 RMK A01 T03810160  RH  027%=      5-min Rain = 0
KTA1 202029Z 17009KT 38/16 A299 RMK A01 T03810158  RH  027%=      5-min Rain = 0
KTA1 202030Z 17008KT 38/16 A299 RMK A01 T03810156  RH  027%=      5-min Rain = 0
KTA1 202031Z 19008KT 38/16 A299 RMK A01 T03800157  RH  027%=      5-min Rain = 0
KTA1 202032Z 17011KT 38/16 A299 RMK A01 T03810156  RH  026%=      5-min Rain = 0
KTA1 202033Z 17012KT 38/16 A299 RMK A01 T03820156  RH  026%=      5-min Rain = 0
KTA1 202034Z 17009KT 38/16 A299 RMK A01 T03810156  RH  026%=      5-min Rain = 0
KTA1 202035Z 16008KT 38/16 A299 RMK A01 T03800157  RH  027%=      5-min Rain = 0
KTA1 202036Z 16010KT 38/16 A299 RMK A01 T03820158  RH  027%=      5-min Rain = 0
KTA1 202037Z 16012KT 38/16 A299 RMK A01 T03830159  RH  027%=      5-min Rain = 0
KTA1 202038Z 14008KT 38/16 A299 RMK A01 T03830158  RH  027%=      5-min Rain = 0
KTA1 202039Z 13006KT 38/16 A2989 RMK A01 T03820155  RH  026%=      5-min Rain = 0
KTA1 202040Z 14009KT 38/16 A2989 RMK A01 T03820158  RH  027%=      5-min Rain = 0
KTA1 202041Z 14009KT 38/16 A2989 RMK A01 T03830158  RH  027%=      5-min Rain = 0
KTA1 202042Z 14008KT 39/15 A2989 RMK A01 T03860154  RH  026%=      5-min Rain = 0
KTA1 202043Z 13003KT 39/15 A2989 RMK A01 T03870151  RH  025%=      5-min Rain = 0
KTA1 202044Z 15002KT 39/15 A2989 RMK A01 T03860151  RH  025%=      5-min Rain = 0
KTA1 202045Z 14006G13KT 39/15 A2989 RMK A01 T03870153  RH  025%=      5-min Rain = 0
KTA1 202046Z 18012KT 39/16 A2989 RMK A01 T03880156  RH  026%=      5-min Rain = 0
KTA1 202047Z 17006G11KT 39/16 A2989 RMK A01 T03850157  RH  026%=      5-min Rain = 0
KTA1 202048Z 17010G15KT 39/16 A2989 RMK A01 T03850160  RH  027%=      5-min Rain = 0
KTA1 202049Z 17012KT 39/16 A2989 RMK A01 T03870158  RH  026%=      5-min Rain = 0
KTA1 202050Z 16010KT 39/16 A2989 RMK A01 T03870159  RH  026%=      5-min Rain = 0
KTA1 202051Z 17008KT 38/16 A2989 RMK A01 T03840156  RH  026%=      5-min Rain = 0
KTA1 202052Z 14006KT 38/16 A2989 RMK A01 T03820156  RH  026%=      5-min Rain = 0
KTA1 202053Z 14008KT 38/16 A2989 RMK A01 T03820155  RH  026%=      5-min Rain = 0
KTA1 202054Z 14010KT 38/16 A2989 RMK A01 T03830157  RH  027%=      5-min Rain = 0
KTA1 202055Z 15010KT 39/16 A2989 RMK A01 T03870156  RH  026%=      5-min Rain = 0
KTA1 202056Z 15010KT 39/15 A2989 RMK A01 T03890153  RH  025%=      5-min Rain = 0
KTA1 202057Z 14009KT 39/15 A2989 RMK A01 T03890150  RH  025%=      5-min Rain = 0
KTA1 202058Z 14007KT 39/15 A2989 RMK A01 T03880147  RH  024%=      5-min Rain = 0
KTA1 202059Z 16006KT 39/15 A2989 RMK A01 T03870147  RH  024%=      5-min Rain = 0
KTA1 202100Z 16007KT 39/15 A2989 RMK A01 T03870146  RH  024%=      5-min Rain = 0
KTA1 202101Z 15008KT 39/15 A2989 RMK A01 T03880148  RH  024%=      5-min Rain = 0
KTA1 202102Z 14007KT 39/15 A2989 RMK A01 T03870149  RH  025%=      5-min Rain = 0
KTA1 202103Z 15005KT 39/15 A2989 RMK A01 T03880147  RH  024%=      5-min Rain = 0
KTA1 202104Z 14008KT 39/15 A2989 RMK A01 T03890146  RH  024%=      5-min Rain = 0
KTA1 202105Z 14006G11KT 39/15 A2988 RMK A01 T03890146  RH  024%=      5-min Rain = 0
KTA1 202106Z 17010KT 39/15 A2988 RMK A01 T03920146  RH  024%=      5-min Rain = 0
KTA1 202107Z 17010KT 40/14 A2988 RMK A01 T03950142  RH  022%=      5-min Rain = 0
KTA1 202108Z 16009KT 39/14 A2988 RMK A01 T03930144  RH  023%=      5-min Rain = 0
KTA1 202109Z 17010KT 39/15 A2988 RMK A01 T03920150  RH  024%=      5-min Rain = 0
KTA1 202110Z 18007KT 39/15 A2988 RMK A01 T03920150  RH  024%=      5-min Rain = 0
KTA1 202111Z 18007KT 39/15 A2988 RMK A01 T03910147  RH  024%=      5-min Rain = 0
KTA1 202112Z 18007KT 39/15 A2988 RMK A01 T03880145  RH  024%=      5-min Rain = 0
KTA1 202113Z 19008KT 39/15 A2988 RMK A01 T03880146  RH  024%=      5-min Rain = 0
KTA1 202114Z 18009KT 39/15 A2988 RMK A01 T03930148  RH  024%=      5-min Rain = 0
KTA1 202115Z 18010G15KT 40/15 A2988 RMK A01 T03960145  RH  023%=      5-min Rain = 0
KTA1 202116Z 18011KT 39/15 A2988 RMK A01 T03930149  RH  024%=      5-min Rain = 0
KTA1 202117Z 16011KT 39/15 A2988 RMK A01 T03920151  RH  024%=      5-min Rain = 0
KTA1 202118Z 17009KT 39/15 A2988 RMK A01 T03900153  RH  025%=      5-min Rain = 0
KTA1 202119Z 16005KT 39/15 A2988 RMK A01 T03900150  RH  024%=      5-min Rain = 0
KTA1 202120Z 16006KT 39/15 A2988 RMK A01 T03920151  RH  024%=      5-min Rain = 0
KTA1 202121Z 16007KT 39/15 A2988 RMK A01 T03920150  RH  024%=      5-min Rain = 0
KTA1 202122Z 17008KT 39/15 A2988 RMK A01 T03890152  RH  025%=      5-min Rain = 0
KTA1 202123Z 17008KT 39/15 A2988 RMK A01 T03910153  RH  025%=      5-min Rain = 0
KTA1 202124Z 20007KT 39/15 A2988 RMK A01 T03940148  RH  024%=      5-min Rain = 0
KTA1 202125Z 20007KT 39/15 A2988 RMK A01 T03920147  RH  024%=      5-min Rain = 0
KTA1 202126Z 18007KT 39/15 A2988 RMK A01 T03920145  RH  023%=      5-min Rain = 0
KTA1 202127Z 20008KT 39/15 A2988 RMK A01 T03900146  RH  024%=      5-min Rain = 0
KTA1 202128Z 19010KT 39/15 A2988 RMK A01 T03930146  RH  023%=      5-min Rain = 0
KTA1 202129Z 20006KT 39/14 A2988 RMK A01 T03930144  RH  023%=      5-min Rain = 0
KTA1 202130Z 20005KT 39/14 A2988 RMK A01 T03920142  RH  023%=      5-min Rain = 0
KTA1 202131Z 21006KT 39/14 A2988 RMK A01 T03920144  RH  023%=      5-min Rain = 0
KTA1 202132Z 22007KT 40/15 A2988 RMK A01 T03950146  RH  023%=      5-min Rain = 0
KTA1 202133Z 18006KT 40/15 A2988 RMK A01 T03970146  RH  023%=      5-min Rain = 0
KTA1 202134Z 16007KT 40/15 A2988 RMK A01 T03980149  RH  023%=      5-min Rain = 0
KTA1 202135Z 18011KT 40/15 A2988 RMK A01 T04000151  RH  023%=      5-min Rain = 0
KTA1 202136Z 17004KT 40/15 A2988 RMK A01 T03970146  RH  023%=      5-min Rain = 0
KTA1 202137Z 19006KT 39/15 A2988 RMK A01 T03940147  RH  023%=      5-min Rain = 0
KTA1 202138Z 20009KT 39/15 A2988 RMK A01 T03920146  RH  023%=      5-min Rain = 0
KTA1 202139Z 19007KT 39/15 A2988 RMK A01 T03920146  RH  023%=      5-min Rain = 0
KTA1 202140Z 22001KT 39/14 A2987 RMK A01 T03910144  RH  023%=      5-min Rain = 0
KTA1 202141Z 17007G14KT 39/14 A2987 RMK A01 T03910143  RH  023%=      5-min Rain = 0
KTA1 202142Z 17011KT 39/14 A2987 RMK A01 T03920140  RH  023%=      5-min Rain = 0
KTA1 202143Z 19010KT 39/14 A2987 RMK A01 T03920141  RH  023%=      5-min Rain = 0
KTA1 202144Z 20006KT 39/14 A2987 RMK A01 T03920140  RH  023%=      5-min Rain = 0
KTA1 202145Z 17009KT 39/14 A2987 RMK A01 T03910141  RH  023%=      5-min Rain = 0
KTA1 202146Z 17010KT 39/14 A2987 RMK A01 T03920140  RH  023%=      5-min Rain = 0
KTA1 202147Z 18008KT 39/14 A2987 RMK A01 T03930137  RH  022%=      5-min Rain = 0
KTA1 202148Z 19008KT 39/14 A2987 RMK A01 T03900138  RH  022%=      5-min Rain = 0
KTA1 202149Z 19004KT 39/14 A2987 RMK A01 T03890136  RH  022%=      5-min Rain = 0
KTA1 202150Z 17007KT 39/14 A2987 RMK A01 T03880137  RH  023%=      5-min Rain = 0
KTA1 202151Z 16006KT 39/14 A2987 RMK A01 T03910135  RH  022%=      5-min Rain = 0
KTA1 202152Z 17007KT 39/14 A2987 RMK A01 T03910136  RH  022%=      5-min Rain = 0
KTA1 202153Z 21006KT 39/14 A2987 RMK A01 T03890139  RH  023%=      5-min Rain = 0
KTA1 202154Z 21006KT 39/14 A2987 RMK A01 T03870138  RH  023%=      5-min Rain = 0
KTA1 202155Z 21004KT 39/14 A2987 RMK A01 T03870138  RH  023%=      5-min Rain = 0
KTA1 202156Z 18007KT 39/14 A2987 RMK A01 T03890138  RH  023%=      5-min Rain = 0
KTA1 202157Z 20007KT 39/14 A2987 RMK A01 T03900141  RH  023%=      5-min Rain = 0
KTA1 202158Z 20005KT 39/14 A2987 RMK A01 T03910143  RH  023%=      5-min Rain = 0
KTA1 202159Z 20005KT 39/14 A2987 RMK A01 T03920141  RH  023%=      5-min Rain = 0
KTA1 202200Z 20004KT 39/14 A2987 RMK A01 T03920142  RH  023%=      5-min Rain = 0
KTA1 202201Z 17008KT 39/14 A2987 RMK A01 T03930142  RH  023%=      5-min Rain = 0
KTA1 202202Z 19009KT 40/14 A2987 RMK A01 T03950142  RH  022%=      5-min Rain = 0
KTA1 202203Z 16008KT 40/14 A2987 RMK A01 T03980143  RH  022%=      5-min Rain = 0
KTA1 202204Z 16012KT 40/14 A2987 RMK A01 T04020144  RH  022%=      5-min Rain = 0
KTA1 202205Z 18011KT 40/14 A2987 RMK A01 T04020142  RH  022%=      5-min Rain = 0
KTA1 202206Z 16007KT 40/14 A2987 RMK A01 T03990143  RH  022%=      5-min Rain = 0
KTA1 202207Z 19008KT 40/14 A2987 RMK A01 T03980143  RH  022%=      5-min Rain = 0
KTA1 202208Z 19005KT 40/14 A2987 RMK A01 T03960141  RH  022%=      5-min Rain = 0
KTA1 202209Z 19005KT 40/14 A2987 RMK A01 T03950140  RH  022%=      5-min Rain = 0
KTA1 202210Z 18007KT 40/14 A2987 RMK A01 T03950140  RH  022%=      5-min Rain = 0
KTA1 202211Z 17011KT 40/14 A2987 RMK A01 T03950141  RH  022%=      5-min Rain = 0
KTA1 202212Z 16011KT 40/14 A2987 RMK A01 T03950140  RH  022%=      5-min Rain = 0
KTA1 202213Z 19010KT 40/14 A2987 RMK A01 T03960140  RH  022%=      5-min Rain = 0
KTA1 202214Z 19008KT 40/14 A2987 RMK A01 T03980138  RH  022%=      5-min Rain = 0
KTA1 202215Z 19008KT 40/14 A2987 RMK A01 T03990136  RH  021%=      5-min Rain = 0
KTA1 202216Z 18007KT 40/14 A2987 RMK A01 T03980136  RH  021%=      5-min Rain = 0
KTA1 202217Z 18008KT 40/14 A2987 RMK A01 T03970137  RH  022%=      5-min Rain = 0
KTA1 202218Z 16008KT 40/14 A2987 RMK A01 T03960140  RH  022%=      5-min Rain = 0
KTA1 202219Z 16010KT 40/14 A2987 RMK A01 T03980138  RH  022%=      5-min Rain = 0
KTA1 202220Z 15009KT 40/14 A2987 RMK A01 T03980138  RH  022%=      5-min Rain = 0
KTA1 202221Z 15007KT 40/14 A2987 RMK A01 T03960138  RH  022%=      5-min Rain = 0
KTA1 202222Z 15007KT 40/14 A2987 RMK A01 T03960141  RH  022%=      5-min Rain = 0
KTA1 202223Z 14007KT 40/14 A2987 RMK A01 T03960143  RH  023%=      5-min Rain = 0
KTA1 202224Z 14006KT 40/14 A2987 RMK A01 T03950143  RH  023%=      5-min Rain = 0
KTA1 202225Z 15013G18KT 39/14 A2987 RMK A01 T03940144  RH  023%=      5-min Rain = 0
KTA1 202226Z 15015KT 39/14 A2987 RMK A01 T03940144  RH  023%=      5-min Rain = 0
KTA1 202227Z 13013KT 39/14 A2987 RMK A01 T03920143  RH  023%=      5-min Rain = 0
KTA1 202228Z 13011KT 39/14 A2987 RMK A01 T03870142  RH  023%=      5-min Rain = 0
KTA1 202229Z 17009KT 38/14 A2987 RMK A01 T03840142  RH  024%=      5-min Rain = 0
KTA1 202230Z 16006KT 38/14 A2987 RMK A01 T03830139  RH  024%=      5-min Rain = 0
KTA1 202231Z 14006KT 38/14 A2987 RMK A01 T03810139  RH  024%=      5-min Rain = 0
KTA1 202232Z 16010KT 38/14 A2987 RMK A01 T03800139  RH  024%=      5-min Rain = 0
KTA1 202233Z 16010KT 38/14 A2987 RMK A01 T03800138  RH  024%=      5-min Rain = 0
KTA1 202234Z 17009KT 38/14 A2987 RMK A01 T03840138  RH  023%=      5-min Rain = 0
KTA1 202235Z 16010KT 39/14 A2986 RMK A01 T03860139  RH  023%=      5-min Rain = 0
KTA1 202236Z 14014KT 39/14 A2986 RMK A01 T03890140  RH  023%=      5-min Rain = 0
KTA1 202237Z 14013KT 39/14 A2986 RMK A01 T03900140  RH  023%=      5-min Rain = 0
KTA1 202238Z 14011KT 39/14 A2986 RMK A01 T03900140  RH  023%=      5-min Rain = 0
KTA1 202239Z 14009KT 39/14 A2986 RMK A01 T03910140  RH  023%=      5-min Rain = 0
KTA1 202240Z 13009KT 39/14 A2986 RMK A01 T03910140  RH  023%=      5-min Rain = 0
KTA1 202241Z 16013KT 39/14 A2986 RMK A01 T03930143  RH  023%=      5-min Rain = 0
KTA1 202242Z 15014KT 39/14 A2986 RMK A01 T03920142  RH  023%=      5-min Rain = 0
KTA1 202243Z 15012KT 39/14 A2986 RMK A01 T03910141  RH  023%=      5-min Rain = 0
KTA1 202244Z 16010KT 39/15 A2986 RMK A01 T03900145  RH  023%=      5-min Rain = 0
KTA1 202245Z 15012KT 39/15 A2986 RMK A01 T03910145  RH  023%=      5-min Rain = 0
KTA1 202246Z 15011KT 39/15 A2986 RMK A01 T03910146  RH  024%=      5-min Rain = 0
KTA1 202247Z 17013KT 39/15 A2986 RMK A01 T03910146  RH  024%=      5-min Rain = 0
KTA1 202248Z 16010G15KT 39/14 A2986 RMK A01 T03910143  RH  023%=      5-min Rain = 0
KTA1 202249Z 14010KT 39/14 A2986 RMK A01 T03900144  RH  023%=      5-min Rain = 0
KTA1 202250Z 12010KT 39/15 A2986 RMK A01 T03890145  RH  024%=      5-min Rain = 0
KTA1 202251Z 13010KT 39/14 A2986 RMK A01 T03890144  RH  024%=      5-min Rain = 0
KTA1 202252Z 14010KT 39/14 A2986 RMK A01 T03900144  RH  023%=      5-min Rain = 0
KTA1 202253Z 15008KT 39/14 A2986 RMK A01 T03900143  RH  023%=      5-min Rain = 0
KTA1 202254Z 15008KT 39/14 A2986 RMK A01 T03900143  RH  023%=      5-min Rain = 0
KTA1 202255Z 12007KT 39/14 A2986 RMK A01 T03890142  RH  023%=      5-min Rain = 0
KTA1 202256Z 11006KT 39/14 A2986 RMK A01 T03890141  RH  023%=      5-min Rain = 0
KTA1 202257Z 10004KT 39/14 A2986 RMK A01 T03870140  RH  023%=      5-min Rain = 0
KTA1 202258Z 13003KT 39/14 A2986 RMK A01 T03870140  RH  023%=      5-min Rain = 0
KTA1 202259Z 16005KT 39/14 A2986 RMK A01 T03870142  RH  024%=      5-min Rain = 0
KTA1 202300Z 17005KT 39/14 A2986 RMK A01 T03890143  RH  023%=      5-min Rain = 0
KTA1 202301Z 19011KT 39/14 A2986 RMK A01 T03900142  RH  023%=      5-min Rain = 0
KTA1 202302Z 19011KT 39/14 A2986 RMK A01 T03890141  RH  023%=      5-min Rain = 0
KTA1 202303Z 19008KT 39/14 A2986 RMK A01 T03890140  RH  023%=      5-min Rain = 0
KTA1 202304Z 18009KT 39/14 A2986 RMK A01 T03890142  RH  023%=      5-min Rain = 0
KTA1 202305Z 17011KT 39/14 A2986 RMK A01 T03920141  RH  023%=      5-min Rain = 0
KTA1 202306Z 16009KT 39/14 A2986 RMK A01 T03920140  RH  023%=      5-min Rain = 0
KTA1 202307Z 16011KT 39/14 A2986 RMK A01 T03920144  RH  023%=      5-min Rain = 0
KTA1 202308Z 17012KT 39/14 A2986 RMK A01 T03910141  RH  023%=      5-min Rain = 0
KTA1 202309Z 18007G12KT 39/14 A2986 RMK A01 T03880136  RH  022%=      5-min Rain = 0
KTA1 202310Z 18009KT 39/14 A2986 RMK A01 T03870139  RH  023%=      5-min Rain = 0
KTA1 202311Z 18009KT 39/14 A2986 RMK A01 T03890142  RH  023%=      5-min Rain = 0
KTA1 202312Z 18013KT 39/14 A2986 RMK A01 T03910141  RH  023%=      5-min Rain = 0
KTA1 202313Z 18008KT 39/14 A2986 RMK A01 T03900141  RH  023%=      5-min Rain = 0
KTA1 202314Z 18011KT 39/14 A2985 RMK A01 T03900143  RH  023%=      5-min Rain = 0
KTA1 202315Z 17009KT 39/14 A2986 RMK A01 T03900142  RH  023%=      5-min Rain = 0
KTA1 202316Z 19009KT 39/14 A2985 RMK A01 T03890141  RH  023%=      5-min Rain = 0
KTA1 202317Z 19005KT 39/14 A2985 RMK A01 T03880141  RH  023%=      5-min Rain = 0
KTA1 202318Z 18006KT 39/14 A2985 RMK A01 T03870141  RH  023%=      5-min Rain = 0
KTA1 202319Z 17009G14KT 39/14 A2985 RMK A01 T03870144  RH  024%=      5-min Rain = 0
KTA1 202320Z 16009KT 39/14 A2985 RMK A01 T03860142  RH  024%=      5-min Rain = 0
KTA1 202321Z 15009KT 38/14 A2985 RMK A01 T03820141  RH  024%=      5-min Rain = 0
KTA1 202322Z 15009KT 38/14 A2985 RMK A01 T03800143  RH  025%=      5-min Rain = 0
KTA1 202323Z 14008KT 38/14 A2985 RMK A01 T03800143  RH  025%=      5-min Rain = 0
KTA1 202324Z 14009KT 38/14 A2985 RMK A01 T03790143  RH  025%=      5-min Rain = 0
KTA1 202325Z 15012KT 38/15 A2985 RMK A01 T03790145  RH  025%=      5-min Rain = 0
KTA1 202326Z 17014KT 38/15 A2985 RMK A01 T03790146  RH  025%=      5-min Rain = 0
KTA1 202327Z 16011KT 38/14 A2985 RMK A01 T03800144  RH  025%=      5-min Rain = 0
KTA1 202328Z 15012KT 38/15 A2985 RMK A01 T03830145  RH  024%=      5-min Rain = 0
KTA1 202329Z 15014KT 38/14 A2985 RMK A01 T03840144  RH  024%=      5-min Rain = 0
KTA1 202330Z 15009KT 38/14 A2985 RMK A01 T03840143  RH  024%=      5-min Rain = 0
KTA1 202331Z 14011KT 38/14 A2985 RMK A01 T03840144  RH  024%=      5-min Rain = 0
KTA1 202332Z 14011KT 39/14 A2985 RMK A01 T03850144  RH  024%=      5-min Rain = 0
KTA1 202333Z 14011KT 39/14 A2985 RMK A01 T03850144  RH  024%=      5-min Rain = 0
KTA1 202334Z 14009KT 39/15 A2985 RMK A01 T03850145  RH  024%=      5-min Rain = 0
KTA1 202335Z 15012KT 39/15 A2985 RMK A01 T03850147  RH  025%=      5-min Rain = 0
KTA1 202336Z 15012KT 39/15 A2985 RMK A01 T03850148  RH  025%=      5-min Rain = 0
KTA1 202337Z 13014KT 38/15 A2985 RMK A01 T03840150  RH  025%=      5-min Rain = 0
KTA1 202338Z 13013KT 38/15 A2985 RMK A01 T03830149  RH  025%=      5-min Rain = 0
KTA1 202339Z 14009KT 38/15 A2985 RMK A01 T03820150  RH  025%=      5-min Rain = 0
KTA1 202340Z 16008KT 38/15 A2985 RMK A01 T03840147  RH  025%=      5-min Rain = 0
KTA1 202341Z 16008KT 38/14 A2985 RMK A01 T03840144  RH  024%=      5-min Rain = 0
KTA1 202342Z 15010KT 39/14 A2985 RMK A01 T03850144  RH  024%=      5-min Rain = 0
KTA1 202343Z 15009KT 39/15 A2985 RMK A01 T03850146  RH  024%=      5-min Rain = 0
KTA1 202344Z 15010KT 39/15 A2985 RMK A01 T03860147  RH  024%=      5-min Rain = 0
KTA1 202345Z 17010KT 39/15 A2985 RMK A01 T03870146  RH  024%=      5-min Rain = 0
KTA1 202346Z 15012KT 39/15 A2985 RMK A01 T03870146  RH  024%=      5-min Rain = 0
KTA1 202347Z 15013KT 39/15 A2985 RMK A01 T03850146  RH  024%=      5-min Rain = 0
KTA1 202348Z 17012KT 38/15 A2985 RMK A01 T03840147  RH  025%=      5-min Rain = 0
KTA1 202349Z 18012KT 38/14 A2985 RMK A01 T03840144  RH  024%=      5-min Rain = 0
KTA1 202350Z 18009KT 38/14 A2985 RMK A01 T03840143  RH  024%=      5-min Rain = 0
KTA1 202351Z 17011G17KT 38/14 A2985 RMK A01 T03840143  RH  024%=      5-min Rain = 0
KTA1 202352Z 16013KT 39/14 A2984 RMK A01 T03850144  RH  024%=      5-min Rain = 0
KTA1 202353Z 16012KT 38/15 A2984 RMK A01 T03840145  RH  024%=      5-min Rain = 0
KTA1 202354Z 15012KT 38/15 A2984 RMK A01 T03820146  RH  025%=      5-min Rain = 0
KTA1 202355Z 15012KT 38/15 A2984 RMK A01 T03830147  RH  025%=      5-min Rain = 0
KTA1 202356Z 15014KT 38/15 A2984 RMK A01 T03830146  RH  025%=      5-min Rain = 0
KTA1 202357Z 16015KT 38/15 A2984 RMK A01 T03830145  RH  024%=      5-min Rain = 0
KTA1 202358Z 15013KT 38/15 A2984 RMK A01 T03820146  RH  025%=      5-min Rain = 0
KTA1 202359Z 15011KT 38/15 A2984 RMK A01 T03810145  RH  025%=      5-min Rain = 0
KTA1 210000Z 16010KT 38/15 A2984 RMK A01 T03800145  RH  025%=      5-min Rain = 0
KTA1 210001Z 16009KT 38/15 A2984 RMK A01 T03810146  RH  025%=      5-min Rain = 0
KTA1 210002Z 16011KT 38/15 A2984 RMK A01 T03820146  RH  025%=      5-min Rain = 0
KTA1 210003Z 16011KT 38/15 A2984 RMK A01 T03820146  RH  025%=      5-min Rain = 0
KTA1 210004Z 16009KT 38/15 A2984 RMK A01 T03810146  RH  025%=      5-min Rain = 0
KTA1 210005Z 15014G19KT 38/15 A2984 RMK A01 T03810146  RH  025%=      5-min Rain = 0
KTA1 210006Z 16014KT 38/14 A2984 RMK A01 T03800144  RH  025%=      5-min Rain = 0
KTA1 210007Z 16014KT 38/15 A2984 RMK A01 T03800145  RH  025%=      5-min Rain = 0
KTA1 210008Z 15011KT 38/14 A2984 RMK A01 T03790144  RH  025%=      5-min Rain = 0
KTA1 210009Z 15013KT 38/15 A2985 RMK A01 T03790148  RH  026%=      5-min Rain = 0
KTA1 210010Z 15012KT 38/15 A2985 RMK A01 T03790149  RH  026%=      5-min Rain = 0
KTA1 210011Z 14015KT 38/15 A2985 RMK A01 T03780150  RH  026%=      5-min Rain = 0
KTA1 210012Z 14015KT 38/15 A2985 RMK A01 T03770150  RH  026%=      5-min Rain = 0
KTA1 210013Z 14014KT 38/15 A2985 RMK A01 T03770150  RH  026%=      5-min Rain = 0
KTA1 210014Z 13016KT 38/15 A2985 RMK A01 T03770150  RH  026%=      5-min Rain = 0
KTA1 210015Z 14013KT 38/15 A2985 RMK A01 T03760150  RH  026%=      5-min Rain = 0
KTA1 210016Z 15013KT 38/15 A2984 RMK A01 T03750150  RH  026%=      5-min Rain = 0
KTA1 210017Z 16013G18KT 38/15 A2985 RMK A01 T03750151  RH  027%=      5-min Rain = 0
KTA1 210018Z 16014KT 38/15 A2985 RMK A01 T03750151  RH  026%=      5-min Rain = 0
KTA1 210019Z 15015KT 38/15 A2985 RMK A01 T03750150  RH  026%=      5-min Rain = 0
KTA1 210020Z 15014KT 38/15 A2985 RMK A01 T03750150  RH  026%=      5-min Rain = 0
KTA1 210021Z 15013KT 38/15 A2985 RMK A01 T03750150  RH  026%=      5-min Rain = 0
KTA1 210022Z 14012G17KT 38/15 A2985 RMK A01 T03760151  RH  027%=      5-min Rain = 0
KTA1 210023Z 14014KT 38/15 A2985 RMK A01 T03760150  RH  026%=      5-min Rain = 0
KTA1 210024Z 14012KT 38/15 A2985 RMK A01 T03760149  RH  026%=      5-min Rain = 0
KTA1 210025Z 15013KT 38/15 A2985 RMK A01 T03760151  RH  026%=      5-min Rain = 0
KTA1 210026Z 15015KT 38/15 A2985 RMK A01 T03760151  RH  026%=      5-min Rain = 0
KTA1 210027Z 15013KT 38/15 A2985 RMK A01 T03760150  RH  026%=      5-min Rain = 0
KTA1 210028Z 16015KT 38/15 A2985 RMK A01 T03750150  RH  026%=      5-min Rain = 0
KTA1 210029Z 16013KT 37/15 A2985 RMK A01 T03740150  RH  027%=      5-min Rain = 0
KTA1 210030Z 14015KT 37/15 A2985 RMK A01 T03740150  RH  027%=      5-min Rain = 0
KTA1 210031Z 15012KT 37/15 A2985 RMK A01 T03730150  RH  027%=      5-min Rain = 0
KTA1 210032Z 17013KT 37/15 A2985 RMK A01 T03730150  RH  027%=      5-min Rain = 0
KTA1 210033Z 15013KT 37/15 A2985 RMK A01 T03730149  RH  027%=      5-min Rain = 0
KTA1 210034Z 15012KT 37/15 A2985 RMK A01 T03730150  RH  027%=      5-min Rain = 0
KTA1 210035Z 15015KT 37/15 A2985 RMK A01 T03730149  RH  027%=      5-min Rain = 0
KTA1 210036Z 15014KT 37/15 A2985 RMK A01 T03720148  RH  026%=      5-min Rain = 0
KTA1 210037Z 17012KT 37/15 A2985 RMK A01 T03720148  RH  027%=      5-min Rain = 0
KTA1 210038Z 16014KT 37/15 A2985 RMK A01 T03720148  RH  026%=      5-min Rain = 0
KTA1 210039Z 15015KT 37/15 A2985 RMK A01 T03720148  RH  026%=      5-min Rain = 0
KTA1 210040Z 16014KT 37/15 A2985 RMK A01 T03710148  RH  027%=      5-min Rain = 0
KTA1 210041Z 16013KT 37/15 A2985 RMK A01 T03710149  RH  027%=      5-min Rain = 0
KTA1 210042Z 15012KT 37/15 A2985 RMK A01 T03710149  RH  027%=      5-min Rain = 0
KTA1 210043Z 15011KT 37/15 A2985 RMK A01 T03700150  RH  027%=      5-min Rain = 0
KTA1 210044Z 16013KT 37/15 A2985 RMK A01 T03700150  RH  027%=      5-min Rain = 0
KTA1 210045Z 15014KT 37/15 A2985 RMK A01 T03700149  RH  027%=      5-min Rain = 0
KTA1 210046Z 16013KT 37/15 A2985 RMK A01 T03700149  RH  027%=      5-min Rain = 0
KTA1 210047Z 16012KT 37/15 A2985 RMK A01 T03690151  RH  027%=      5-min Rain = 0
KTA1 210048Z 16013KT 37/15 A2985 RMK A01 T03680151  RH  027%=      5-min Rain = 0
KTA1 210049Z 16011G16KT 37/15 A2985 RMK A01 T03690151  RH  028%=      5-min Rain = 0
KTA1 210050Z 16013KT 37/15 A2985 RMK A01 T03680151  RH  028%=      5-min Rain = 0
KTA1 210051Z 16010KT 37/15 A2985 RMK A01 T03680151  RH  028%=      5-min Rain = 0
KTA1 210052Z 15012KT 37/15 A2986 RMK A01 T03680151  RH  028%=      5-min Rain = 0
KTA1 210053Z 16012KT 37/15 A2985 RMK A01 T03680149  RH  027%=      5-min Rain = 0
KTA1 210054Z 16011KT 37/15 A2986 RMK A01 T03670149  RH  027%=      5-min Rain = 0
KTA1 210055Z 15011KT 37/15 A2985 RMK A01 T03670149  RH  027%=      5-min Rain = 0
KTA1 210056Z 16013KT 37/15 A2985 RMK A01 T03670149  RH  027%=      5-min Rain = 0
KTA1 210057Z 16015KT 37/15 A2985 RMK A01 T03670149  RH  027%=      5-min Rain = 0
KTA1 210058Z 16015KT 37/15 A2985 RMK A01 T03660149  RH  028%=      5-min Rain = 0
KTA1 210059Z 15012G17KT 37/15 A2985 RMK A01 T03660149  RH  028%=      5-min Rain = 0
KTA1 210100Z 16011KT 37/15 A2986 RMK A01 T03650150  RH  028%=      5-min Rain = 0
KTA1 210101Z 16013KT 37/15 A2985 RMK A01 T03650150  RH  028%=      5-min Rain = 0
KTA1 210102Z 16013KT 37/15 A2985 RMK A01 T03650150  RH  028%=      5-min Rain = 0
KTA1 210103Z 16013KT 36/15 A2985 RMK A01 T03640150  RH  028%=      5-min Rain = 0
KTA1 210104Z 15013KT 36/15 A2985 RMK A01 T03640149  RH  028%=      5-min Rain = 0
KTA1 210105Z 15014KT 36/15 A2985 RMK A01 T03630150  RH  028%=      5-min Rain = 0
KTA1 210106Z 15015KT 36/15 A2985 RMK A01 T03630150  RH  028%=      5-min Rain = 0
KTA1 210107Z 16015KT 36/15 A2985 RMK A01 T03620150  RH  028%=      5-min Rain = 0
KTA1 210108Z 16014KT 36/15 A2986 RMK A01 T03620150  RH  028%=      5-min Rain = 0
KTA1 210109Z 15014KT 36/15 A2985 RMK A01 T03620150  RH  028%=      5-min Rain = 0
KTA1 210110Z 16013KT 36/15 A2986 RMK A01 T03610150  RH  028%=      5-min Rain = 0
KTA1 210111Z 15012KT 36/15 A2986 RMK A01 T03610150  RH  029%=      5-min Rain = 0
KTA1 210112Z 16011KT 36/15 A2986 RMK A01 T03610150  RH  029%=      5-min Rain = 0
KTA1 210113Z 15013KT 36/15 A2986 RMK A01 T03600150  RH  029%=      5-min Rain = 0
KTA1 210114Z 16014KT 36/15 A2986 RMK A01 T03600150  RH  029%=      5-min Rain = 0
KTA1 210115Z 16013KT 36/15 A2986 RMK A01 T03600150  RH  029%=      5-min Rain = 0
KTA1 210116Z 16011KT 36/15 A2986 RMK A01 T03590151  RH  029%=      5-min Rain = 0
KTA1 210117Z 15012KT 36/15 A2986 RMK A01 T03590151  RH  029%=      5-min Rain = 0
KTA1 210118Z 16012KT 36/15 A2986 RMK A01 T03580151  RH  029%=      5-min Rain = 0
KTA1 210119Z 16012KT 36/15 A2986 RMK A01 T03580151  RH  029%=      5-min Rain = 0
KTA1 210120Z 15012KT 36/15 A2986 RMK A01 T03580151  RH  029%=      5-min Rain = 0
KTA1 210121Z 16013KT 36/15 A2986 RMK A01 T03570151  RH  029%=      5-min Rain = 0
KTA1 210122Z 16012KT 36/15 A2986 RMK A01 T03570151  RH  029%=      5-min Rain = 0
KTA1 210123Z 15010KT 36/15 A2986 RMK A01 T03570151  RH  029%=      5-min Rain = 0
KTA1 210124Z 16010KT 36/15 A2986 RMK A01 T03560152  RH  030%=      5-min Rain = 0
KTA1 210125Z 16012KT 36/15 A2986 RMK A01 T03550152  RH  030%=      5-min Rain = 0
KTA1 210126Z 16012KT 36/15 A2986 RMK A01 T03550151  RH  030%=      5-min Rain = 0
KTA1 210127Z 15013KT 36/15 A2986 RMK A01 T03550151  RH  030%=      5-min Rain = 0
KTA1 210128Z 16010KT 36/15 A2986 RMK A01 T03550152  RH  030%=      5-min Rain = 0
KTA1 210129Z 16010KT 35/15 A2986 RMK A01 T03540152  RH  030%=      5-min Rain = 0
KTA1 210130Z 16011KT 35/15 A2986 RMK A01 T03530152  RH  030%=      5-min Rain = 0
KTA1 210131Z 15014KT 35/15 A2986 RMK A01 T03530150  RH  030%=      5-min Rain = 0
KTA1 210132Z 16014KT 35/15 A2986 RMK A01 T03520150  RH  030%=      5-min Rain = 0
KTA1 210133Z 16015G20KT 35/15 A2986 RMK A01 T03530149  RH  030%=      5-min Rain = 0
KTA1 210134Z 16014KT 35/15 A2986 RMK A01 T03520148  RH  030%=      5-min Rain = 0
KTA1 210135Z 15014KT 35/15 A2986 RMK A01 T03520148  RH  030%=      5-min Rain = 0
KTA1 210136Z 16014KT 35/15 A2986 RMK A01 T03520148  RH  030%=      5-min Rain = 0
KTA1 210137Z 16012KT 35/15 A2986 RMK A01 T03530149  RH  030%=      5-min Rain = 0
KTA1 210138Z 16013KT 35/15 A2986 RMK A01 T03520148  RH  030%=      5-min Rain = 0
KTA1 210139Z 16014KT 35/15 A2986 RMK A01 T03520148  RH  030%=      5-min Rain = 0
KTA1 210140Z 16012KT 35/15 A2986 RMK A01 T03510148  RH  030%=      5-min Rain = 0
KTA1 210141Z 16013KT 35/15 A2987 RMK A01 T03500148  RH  030%=      5-min Rain = 0
KTA1 210142Z 16013KT 35/15 A2987 RMK A01 T03500148  RH  030%=      5-min Rain = 0
KTA1 210143Z 16011KT 35/15 A2987 RMK A01 T03500147  RH  030%=      5-min Rain = 0
KTA1 210144Z 16013KT 35/15 A2986 RMK A01 T03490147  RH  030%=      5-min Rain = 0
KTA1 210145Z 15014KT 35/15 A2986 RMK A01 T03490146  RH  030%=      5-min Rain = 0
KTA1 210146Z 16013KT 35/15 A2987 RMK A01 T03490146  RH  030%=      5-min Rain = 0
KTA1 210147Z 15015G20KT 35/15 A2987 RMK A01 T03480146  RH  030%=      5-min Rain = 0
KTA1 210148Z 16013KT 35/15 A2987 RMK A01 T03480145  RH  030%=      5-min Rain = 0
KTA1 210149Z 16011KT 35/15 A2987 RMK A01 T03480146  RH  030%=      5-min Rain = 0
KTA1 210150Z 16013G20KT 35/15 A2987 RMK A01 T03470145  RH  030%=      5-min Rain = 0
KTA1 210151Z 15015KT 35/15 A2987 RMK A01 T03460145  RH  030%=      5-min Rain = 0
KTA1 210152Z 16014KT 35/14 A2987 RMK A01 T03460144  RH  030%=      5-min Rain = 0
KTA1 210153Z 16013G18KT 35/14 A2987 RMK A01 T03460144  RH  030%=      5-min Rain = 0
KTA1 210154Z 15012KT 35/14 A2987 RMK A01 T03460144  RH  030%=      5-min Rain = 0
KTA1 210155Z 16013KT 35/14 A2987 RMK A01 T03450144  RH  030%=      5-min Rain = 0
KTA1 210156Z 15016KT 35/14 A2987 RMK A01 T03450143  RH  030%=      5-min Rain = 0
KTA1 210157Z 16012KT 35/14 A2987 RMK A01 T03450143  RH  030%=      5-min Rain = 0
KTA1 210158Z 15012KT 35/14 A2987 RMK A01 T03450143  RH  030%=      5-min Rain = 0
KTA1 210159Z 16013KT 34/14 A2987 RMK A01 T03440143  RH  030%=      5-min Rain = 0
KTA1 210200Z 16013KT 34/14 A2987 RMK A01 T03440143  RH  030%=      5-min Rain = 0
KTA1 210201Z 16011G17KT 34/14 A2987 RMK A01 T03430142  RH  030%=      5-min Rain = 0
KTA1 210202Z 16013G18KT 34/14 A2987 RMK A01 T03420142  RH  030%=      5-min Rain = 0
KTA1 210203Z 16014KT 34/14 A2987 RMK A01 T03420141  RH  030%=      5-min Rain = 0
KTA1 210204Z 16014KT 34/14 A2987 RMK A01 T03420141  RH  030%=      5-min Rain = 0
KTA1 210205Z 16014KT 34/14 A2987 RMK A01 T03420141  RH  030%=      5-min Rain = 0
KTA1 210206Z 16013KT 34/14 A2987 RMK A01 T03420141  RH  030%=      5-min Rain = 0
KTA1 210207Z 15012KT 34/14 A2987 RMK A01 T03410142  RH  030%=      5-min Rain = 0
KTA1 210208Z 15013KT 34/14 A2987 RMK A01 T03400141  RH  030%=      5-min Rain = 0
KTA1 210209Z 16012G17KT 34/14 A2987 RMK A01 T03400141  RH  030%=      5-min Rain = 0
KTA1 210210Z 16012KT 34/14 A2987 RMK A01 T03390141  RH  030%=      5-min Rain = 0
KTA1 210211Z 16014KT 34/14 A2987 RMK A01 T03390141  RH  030%=      5-min Rain = 0
KTA1 210212Z 16013KT 34/14 A2987 RMK A01 T03390140  RH  030%=      5-min Rain = 0
KTA1 210213Z 15016KT 34/14 A2987 RMK A01 T03390140  RH  030%=      5-min Rain = 0
KTA1 210214Z 16012KT 34/14 A2987 RMK A01 T03390140  RH  030%=      5-min Rain = 0
KTA1 210215Z 15016KT 34/14 A2987 RMK A01 T03390140  RH  030%=      5-min Rain = 0
KTA1 210216Z 16014KT 34/14 A2987 RMK A01 T03380138  RH  030%=      5-min Rain = 0
KTA1 210217Z 16014KT 34/14 A2987 RMK A01 T03380138  RH  030%=      5-min Rain = 0
KTA1 210218Z 16015G20KT 34/14 A2987 RMK A01 T03380138  RH  030%=      5-min Rain = 0
KTA1 210219Z 16015G20KT 34/14 A2987 RMK A01 T03380137  RH  030%=      5-min Rain = 0
KTA1 210220Z 16015KT 34/14 A2987 RMK A01 T03380137  RH  030%=      5-min Rain = 0
KTA1 210221Z 16015KT 34/14 A2987 RMK A01 T03380137  RH  030%=      5-min Rain = 0
KTA1 210222Z 16016KT 34/14 A2987 RMK A01 T03370136  RH  030%=      5-min Rain = 0
KTA1 210223Z 16015G20KT 34/14 A2987 RMK A01 T03370136  RH  030%=      5-min Rain = 0
KTA1 210224Z 15014KT 34/14 A2987 RMK A01 T03370136  RH  030%=      5-min Rain = 0
KTA1 210225Z 16016KT 34/14 A2987 RMK A01 T03370136  RH  030%=      5-min Rain = 0
KTA1 210226Z 16013KT 34/14 A2987 RMK A01 T03360135  RH  030%=      5-min Rain = 0
KTA1 210227Z 15014G19KT 34/14 A2987 RMK A01 T03360135  RH  030%=      5-min Rain = 0
KTA1 210228Z 16017KT 34/13 A2987 RMK A01 T03350134  RH  030%=      5-min Rain = 0
KTA1 210229Z 16015KT 34/13 A2987 RMK A01 T03350134  RH  030%=      5-min Rain = 0
KTA1 210230Z 16018KT 34/13 A2987 RMK A01 T03360133  RH  029%=      5-min Rain = 0
KTA1 210231Z 16014KT 34/13 A2987 RMK A01 T03360133  RH  029%=      5-min Rain = 0
KTA1 210232Z 16013G18KT 34/13 A2987 RMK A01 T03360134  RH  029%=      5-min Rain = 0
KTA1 210233Z 16014KT 34/13 A2988 RMK A01 T03350133  RH  030%=      5-min Rain = 0
KTA1 210234Z 16012G17KT 34/13 A2988 RMK A01 T03350133  RH  030%=      5-min Rain = 0
KTA1 210235Z 16013G19KT 33/13 A2988 RMK A01 T03340133  RH  030%=      5-min Rain = 0
KTA1 210236Z 16014KT 33/13 A2988 RMK A01 T03330133  RH  030%=      5-min Rain = 0
KTA1 210237Z 16013KT 33/13 A2988 RMK A01 T03330132  RH  030%=      5-min Rain = 0
KTA1 210238Z 16013KT 33/13 A2988 RMK A01 T03330132  RH  030%=      5-min Rain = 0
KTA1 210239Z 16014KT 33/13 A2988 RMK A01 T03320132  RH  030%=      5-min Rain = 0
KTA1 210240Z 16013KT 33/13 A2988 RMK A01 T03320132  RH  030%=      5-min Rain = 0
KTA1 210241Z 16016KT 33/13 A2988 RMK A01 T03320132  RH  030%=      5-min Rain = 0
KTA1 210242Z 16014KT 33/13 A2988 RMK A01 T03330132  RH  030%=      5-min Rain = 0
KTA1 210243Z 16012KT 33/13 A2988 RMK A01 T03320131  RH  030%=      5-min Rain = 0
KTA1 210244Z 16014KT 33/13 A2988 RMK A01 T03320131  RH  030%=      5-min Rain = 0
KTA1 210245Z 16013KT 33/13 A2988 RMK A01 T03310131  RH  030%=      5-min Rain = 0
KTA1 210246Z 16013KT 33/13 A2988 RMK A01 T03310131  RH  030%=      5-min Rain = 0
KTA1 210247Z 16014G19KT 33/13 A2988 RMK A01 T03300131  RH  030%=      5-min Rain = 0
KTA1 210248Z 16014G19KT 33/13 A2988 RMK A01 T03310131  RH  030%=      5-min Rain = 0
KTA1 210249Z 16015KT 33/13 A2988 RMK A01 T03310131  RH  030%=      5-min Rain = 0
KTA1 210250Z 16013KT 33/13 A2988 RMK A01 T03300130  RH  030%=      5-min Rain = 0
KTA1 210251Z 16012KT 33/13 A2988 RMK A01 T03310131  RH  030%=      5-min Rain = 0
KTA1 210252Z 16012G19KT 33/13 A2988 RMK A01 T03300131  RH  030%=      5-min Rain = 0
KTA1 210253Z 16011KT 33/13 A2988 RMK A01 T03290131  RH  030%=      5-min Rain = 0
KTA1 210254Z 16013G18KT 33/13 A2988 RMK A01 T03290131  RH  030%=      5-min Rain = 0
KTA1 210255Z 16015KT 33/13 A2988 RMK A01 T03290131  RH  030%=      5-min Rain = 0
KTA1 210256Z 17014G19KT 33/13 A2989 RMK A01 T03290130  RH  030%=      5-min Rain = 0
KTA1 210257Z 16015KT 33/13 A2989 RMK A01 T03290130  RH  030%=      5-min Rain = 0
KTA1 210258Z 16014KT 33/13 A2989 RMK A01 T03290130  RH  030%=      5-min Rain = 0
KTA1 210259Z 16015KT 33/13 A2989 RMK A01 T03300131  RH  030%=      5-min Rain = 0
KTA1 210300Z 16014KT 33/13 A2989 RMK A01 T03300131  RH  030%=      5-min Rain = 0
KTA1 210301Z 16012KT 33/13 A2989 RMK A01 T03290131  RH  030%=      5-min Rain = 0
KTA1 210302Z 16012KT 33/13 A2989 RMK A01 T03280131  RH  030%=      5-min Rain = 0
KTA1 210303Z 16015KT 33/13 A2989 RMK A01 T03280130  RH  030%=      5-min Rain = 0
KTA1 210304Z 16015KT 33/13 A2989 RMK A01 T03280130  RH  030%=      5-min Rain = 0
KTA1 210305Z 16014KT 33/13 A2989 RMK A01 T03270131  RH  030%=      5-min Rain = 0
KTA1 210306Z 16015KT 33/13 A2989 RMK A01 T03270131  RH  030%=      5-min Rain = 0
KTA1 210307Z 16016G21KT 33/13 A2989 RMK A01 T03270131  RH  030%=      5-min Rain = 0
KTA1 210308Z 16012G17KT 33/13 A2989 RMK A01 T03270131  RH  031%=      5-min Rain = 0
KTA1 210309Z 16014G19KT 33/13 A2989 RMK A01 T03260131  RH  031%=      5-min Rain = 0
KTA1 210310Z 16016KT 33/13 A2989 RMK A01 T03260131  RH  031%=      5-min Rain = 0
KTA1 210311Z 16013KT 33/13 A2989 RMK A01 T03260132  RH  031%=      5-min Rain = 0
KTA1 210312Z 16016KT 33/13 A2989 RMK A01 T03260132  RH  031%=      5-min Rain = 0
KTA1 210313Z 16015G20KT 33/13 A2989 RMK A01 T03260132  RH  031%=      5-min Rain = 0
KTA1 210314Z 16012G18KT 33/13 A2989 RMK A01 T03260132  RH  031%=      5-min Rain = 0
KTA1 210315Z 16016KT 33/13 A2989 RMK A01 T03250132  RH  031%=      5-min Rain = 0
KTA1 210316Z 16015KT 33/13 A2989 RMK A01 T03250132  RH  031%=      5-min Rain = 0
KTA1 210317Z 16015G21KT 33/13 A2989 RMK A01 T03250132  RH  031%=      5-min Rain = 0
KTA1 210318Z 16011KT 33/13 A2989 RMK A01 T03250132  RH  031%=      5-min Rain = 0
KTA1 210319Z 16014G21KT 32/13 A2989 RMK A01 T03240133  RH  031%=      5-min Rain = 0
KTA1 210320Z 16013KT 32/13 A2989 RMK A01 T03230132  RH  031%=      5-min Rain = 0
KTA1 210321Z 16012KT 32/13 A2989 RMK A01 T03230132  RH  031%=      5-min Rain = 0
KTA1 210322Z 16011G16KT 32/13 A2989 RMK A01 T03220133  RH  032%=      5-min Rain = 0
KTA1 210323Z 16013G19KT 32/13 A2989 RMK A01 T03220133  RH  032%=      5-min Rain = 0
KTA1 210324Z 16015KT 32/13 A2989 RMK A01 T03220133  RH  032%=      5-min Rain = 0
KTA1 210325Z 16014KT 32/13 A2989 RMK A01 T03220132  RH  032%=      5-min Rain = 0
KTA1 210326Z 16012G17KT 32/13 A299 RMK A01 T03220132  RH  032%=      5-min Rain = 0
KTA1 210327Z 16014KT 32/13 A299 RMK A01 T03220133  RH  032%=      5-min Rain = 0
KTA1 210328Z 16013KT 32/13 A299 RMK A01 T03220133  RH  032%=      5-min Rain = 0
KTA1 210329Z 16012KT 32/13 A299 RMK A01 T03210133  RH  032%=      5-min Rain = 0
KTA1 210330Z 16014KT 32/13 A299 RMK A01 T03210133  RH  032%=      5-min Rain = 0
KTA1 210331Z 16014G20KT 32/13 A299 RMK A01 T03210133  RH  032%=      5-min Rain = 0
KTA1 210332Z 16015KT 32/13 A299 RMK A01 T03200133  RH  032%=      5-min Rain = 0
KTA1 210333Z 16015KT 32/13 A299 RMK A01 T03200133  RH  032%=      5-min Rain = 0
KTA1 210334Z 16014KT 32/13 A299 RMK A01 T03200133  RH  032%=      5-min Rain = 0
KTA1 210335Z 16013KT 32/13 A299 RMK A01 T03190133  RH  032%=      5-min Rain = 0
KTA1 210336Z 16015KT 32/13 A299 RMK A01 T03190134  RH  032%=      5-min Rain = 0
KTA1 210337Z 16011KT 32/13 A299 RMK A01 T03190134  RH  032%=      5-min Rain = 0
KTA1 210338Z 16015G21KT 32/13 A299 RMK A01 T03180134  RH  033%=      5-min Rain = 0
KTA1 210339Z 16012KT 32/13 A299 RMK A01 T03180134  RH  033%=      5-min Rain = 0
KTA1 210340Z 16014KT 32/13 A299 RMK A01 T03180134  RH  033%=      5-min Rain = 0
KTA1 210341Z 16013KT 32/13 A299 RMK A01 T03180134  RH  033%=      5-min Rain = 0
KTA1 210342Z 16013KT 32/13 A299 RMK A01 T03180134  RH  033%=      5-min Rain = 0
KTA1 210343Z 16014KT 32/13 A299 RMK A01 T03170134  RH  033%=      5-min Rain = 0
KTA1 210344Z 16014G19KT 32/13 A299 RMK A01 T03170134  RH  033%=      5-min Rain = 0
KTA1 210345Z 17014G19KT 32/13 A299 RMK A01 T03170134  RH  033%=      5-min Rain = 0
KTA1 210346Z 16015KT 32/13 A299 RMK A01 T03170133  RH  033%=      5-min Rain = 0
KTA1 210347Z 16012KT 32/13 A299 RMK A01 T03170133  RH  033%=      5-min Rain = 0
KTA1 210348Z 16016KT 32/13 A299 RMK A01 T03170133  RH  033%=      5-min Rain = 0
KTA1 210349Z 16014KT 32/13 A299 RMK A01 T03170133  RH  033%=      5-min Rain = 0
KTA1 210350Z 16014KT 32/13 A299 RMK A01 T03170133  RH  033%=      5-min Rain = 0
KTA1 210351Z 16014KT 32/13 A2991 RMK A01 T03170133  RH  033%=      5-min Rain = 0
KTA1 210352Z 16013KT 32/13 A299 RMK A01 T03160133  RH  033%=      5-min Rain = 0
KTA1 210353Z 17013KT 32/13 A299 RMK A01 T03160133  RH  033%=      5-min Rain = 0
KTA1 210354Z 17012KT 32/13 A2991 RMK A01 T03160133  RH  033%=      5-min Rain = 0
KTA1 210355Z 16014KT 32/13 A2991 RMK A01 T03150133  RH  033%=      5-min Rain = 0
KTA1 210356Z 16015KT 32/13 A2991 RMK A01 T03150133  RH  033%=      5-min Rain = 0
KTA1 210357Z 16013KT 32/13 A2991 RMK A01 T03150134  RH  033%=      5-min Rain = 0
KTA1 210358Z 16014G22KT 32/13 A2991 RMK A01 T03150133  RH  033%=      5-min Rain = 0
KTA1 210359Z 16014KT 32/13 A2991 RMK A01 T03150134  RH  033%=      5-min Rain = 0
KTA1 210400Z 16011KT 32/13 A2991 RMK A01 T03150134  RH  033%=      5-min Rain = 0
KTA1 210401Z 16014KT 31/13 A2991 RMK A01 T03140134  RH  033%=      5-min Rain = 0
KTA1 210402Z 16015G20KT 31/13 A2991 RMK A01 T03140134  RH  033%=      5-min Rain = 0
KTA1 210403Z 16016KT 31/13 A2991 RMK A01 T03140134  RH  033%=      5-min Rain = 0
KTA1 210404Z 16015KT 31/13 A2991 RMK A01 T03140133  RH  033%=      5-min Rain = 0
KTA1 210405Z 16013KT 31/13 A2991 RMK A01 T03140133  RH  033%=      5-min Rain = 0
KTA1 210406Z 16013KT 31/13 A2991 RMK A01 T03140134  RH  033%=      5-min Rain = 0
KTA1 210407Z 16013KT 31/13 A2991 RMK A01 T03130134  RH  034%=      5-min Rain = 0
KTA1 210408Z 16015KT 31/13 A2991 RMK A01 T03130134  RH  034%=      5-min Rain = 0
KTA1 210409Z 16014KT 31/13 A2991 RMK A01 T03130134  RH  034%=      5-min Rain = 0
KTA1 210410Z 16014KT 31/13 A2991 RMK A01 T03120134  RH  034%=      5-min Rain = 0
KTA1 210411Z 16014G21KT 31/13 A2991 RMK A01 T03120134  RH  034%=      5-min Rain = 0
KTA1 210412Z 17013G19KT 31/13 A2991 RMK A01 T03120134  RH  034%=      5-min Rain = 0
KTA1 210413Z 16014KT 31/13 A2991 RMK A01 T03120134  RH  034%=      5-min Rain = 0
KTA1 210414Z 16014KT 31/13 A2991 RMK A01 T03120134  RH  034%=      5-min Rain = 0
KTA1 210415Z 16014KT 31/13 A2991 RMK A01 T03120134  RH  034%=      5-min Rain = 0
KTA1 210416Z 17014KT 31/14 A2991 RMK A01 T03120135  RH  034%=      5-min Rain = 0
KTA1 210417Z 17014KT 31/13 A2991 RMK A01 T03110134  RH  034%=      5-min Rain = 0
KTA1 210418Z 17014KT 31/14 A2991 RMK A01 T03120135  RH  034%=      5-min Rain = 0
KTA1 210419Z 17013G18KT 31/13 A2992 RMK A01 T03120134  RH  034%=      5-min Rain = 0
KTA1 210420Z 17012KT 31/13 A2992 RMK A01 T03110134  RH  034%=      5-min Rain = 0
KTA1 210421Z 16010KT 31/14 A2992 RMK A01 T03110135  RH  034%=      5-min Rain = 0
KTA1 210422Z 17013G18KT 31/14 A2992 RMK A01 T03110135  RH  034%=      5-min Rain = 0
KTA1 210423Z 17015KT 31/13 A2992 RMK A01 T03100134  RH  034%=      5-min Rain = 0
KTA1 210424Z 17018KT 31/13 A2992 RMK A01 T03100134  RH  034%=      5-min Rain = 0
KTA1 210425Z 17013KT 31/13 A2992 RMK A01 T03110134  RH  034%=      5-min Rain = 0
KTA1 210426Z 17012KT 31/13 A2992 RMK A01 T03110134  RH  034%=      5-min Rain = 0
KTA1 210427Z 17016KT 31/13 A2992 RMK A01 T03110134  RH  034%=      5-min Rain = 0
KTA1 210428Z 17015G20KT 31/13 A2992 RMK A01 T03100134  RH  034%=      5-min Rain = 0
KTA1 210429Z 17014KT 31/13 A2992 RMK A01 T03100134  RH  034%=      5-min Rain = 0
KTA1 210430Z 16013KT 31/13 A2992 RMK A01 T03100133  RH  034%=      5-min Rain = 0
KTA1 210431Z 17018KT 31/13 A2991 RMK A01 T03100133  RH  034%=      5-min Rain = 0
KTA1 210432Z 17014KT 31/13 A2992 RMK A01 T03100133  RH  034%=      5-min Rain = 0
KTA1 210433Z 17015KT 31/13 A2992 RMK A01 T03100133  RH  034%=      5-min Rain = 0
KTA1 210434Z 16012G17KT 31/13 A2992 RMK A01 T03100133  RH  034%=      5-min Rain = 0
KTA1 210435Z 17014G20KT 31/13 A2992 RMK A01 T03100133  RH  034%=      5-min Rain = 0
KTA1 210436Z 17013KT 31/13 A2992 RMK A01 T03090133  RH  034%=      5-min Rain = 0
KTA1 210437Z 17012KT 31/13 A2992 RMK A01 T03090132  RH  034%=      5-min Rain = 0
KTA1 210438Z 17014G19KT 31/13 A2992 RMK A01 T03090132  RH  034%=      5-min Rain = 0
KTA1 210439Z 17013KT 31/13 A2992 RMK A01 T03080132  RH  034%=      5-min Rain = 0
KTA1 210440Z 16011KT 31/13 A2992 RMK A01 T03080132  RH  034%=      5-min Rain = 0
KTA1 210441Z 17014KT 31/13 A2992 RMK A01 T03070131  RH  034%=      5-min Rain = 0
KTA1 210442Z 16012KT 31/13 A2992 RMK A01 T03070131  RH  034%=      5-min Rain = 0
KTA1 210443Z 17012G17KT 31/13 A2992 RMK A01 T03070131  RH  034%=      5-min Rain = 0
KTA1 210444Z 17011KT 31/13 A2992 RMK A01 T03070131  RH  034%=      5-min Rain = 0
KTA1 210445Z 17011G16KT 31/13 A2992 RMK A01 T03070131  RH  034%=      5-min Rain = 0
KTA1 210446Z 17014KT 31/13 A2992 RMK A01 T03060131  RH  034%=      5-min Rain = 0
KTA1 210447Z 17012KT 31/13 A2992 RMK A01 T03060130  RH  034%=      5-min Rain = 0
KTA1 210448Z 17014KT 31/13 A2992 RMK A01 T03060130  RH  034%=      5-min Rain = 0
KTA1 210449Z 17014KT 31/13 A2992 RMK A01 T03060130  RH  034%=      5-min Rain = 0
KTA1 210450Z 17013KT 31/13 A2993 RMK A01 T03070130  RH  034%=      5-min Rain = 0
KTA1 210451Z 17014G19KT 31/13 A2993 RMK A01 T03070130  RH  034%=      5-min Rain = 0
KTA1 210452Z 17013G19KT 31/13 A2993 RMK A01 T03070129  RH  034%=      5-min Rain = 0
KTA1 210453Z 17016KT 31/13 A2993 RMK A01 T03060129  RH  034%=      5-min Rain = 0
KTA1 210454Z 17014KT 31/13 A2993 RMK A01 T03060128  RH  034%=      5-min Rain = 0
KTA1 210455Z 17014KT 31/13 A2993 RMK A01 T03060128  RH  034%=      5-min Rain = 0
KTA1 210456Z 17013KT 31/13 A2993 RMK A01 T03060128  RH  034%=      5-min Rain = 0
KTA1 210457Z 17014KT 31/13 A2993 RMK A01 T03060128  RH  034%=      5-min Rain = 0
KTA1 210458Z 17013KT 31/13 A2993 RMK A01 T03060128  RH  034%=      5-min Rain = 0
KTA1 210459Z 17012KT 31/13 A2993 RMK A01 T03060128  RH  034%=      5-min Rain = 0

Page generated in 0.0791 seconds.